Observation data for Fort McKavett on 08/14/2019      Previous  Date  Next       Current Mesonet Observations  Soil Data  Daily Summary Page  Observations in Plain Language
KMC1 140500Z 14006KT 31/17 A30 RMK A01 T03140173  RH  043%=      5-min Rain = 0
KMC1 140501Z 14006KT 31/17 A30 RMK A01 T03130173  RH  043%=      5-min Rain = 0
KMC1 140502Z 15006KT 31/17 A30 RMK A01 T03130173  RH  043%=      5-min Rain = 0
KMC1 140503Z 14006KT 31/17 A30 RMK A01 T03130173  RH  043%=      5-min Rain = 0
KMC1 140504Z 14006KT 31/17 A30 RMK A01 T03120173  RH  043%=      5-min Rain = 0
KMC1 140505Z 14005KT 31/17 A30 RMK A01 T03130173  RH  043%=      5-min Rain = 0
KMC1 140506Z 14005KT 31/17 A30 RMK A01 T03120172  RH  043%=      5-min Rain = 0
KMC1 140507Z 15006KT 31/17 A30 RMK A01 T03120172  RH  043%=      5-min Rain = 0
KMC1 140508Z 13006KT 31/17 A30 RMK A01 T03110172  RH  043%=      5-min Rain = 0
KMC1 140509Z 14005KT 31/17 A30 RMK A01 T03110172  RH  043%=      5-min Rain = 0
KMC1 140510Z 14005KT 31/17 A30 RMK A01 T03110172  RH  043%=      5-min Rain = 0
KMC1 140524Z 11005KT 31/17 A3001 RMK A01 T03070171  RH  044%=      5-min Rain = 0
KMC1 140525Z 11004KT 31/17 A3001 RMK A01 T03070171  RH  044%=      5-min Rain = 0
KMC1 140526Z 11004KT 31/17 A3001 RMK A01 T03060171  RH  044%=      5-min Rain = 0
KMC1 140527Z 11003KT 31/17 A3001 RMK A01 T03050172  RH  045%=      5-min Rain = 0
KMC1 140528Z 12004KT 30/17 A3001 RMK A01 T03040171  RH  045%=      5-min Rain = 0
KMC1 140529Z 12004KT 30/17 A3001 RMK A01 T03030171  RH  045%=      5-min Rain = 0
KMC1 140530Z 12004KT 30/17 A3001 RMK A01 T03030172  RH  045%=      5-min Rain = 0
KMC1 140531Z 12004KT 30/17 A3001 RMK A01 T03020171  RH  045%=      5-min Rain = 0
KMC1 140532Z 13005KT 30/17 A3001 RMK A01 T03020171  RH  046%=      5-min Rain = 0
KMC1 140533Z 12004KT 30/17 A3001 RMK A01 T03010172  RH  046%=      5-min Rain = 0
KMC1 140534Z 13004KT 30/17 A3001 RMK A01 T03010172  RH  046%=      5-min Rain = 0
KMC1 140535Z 13004KT 30/17 A3001 RMK A01 T03000171  RH  046%=      5-min Rain = 0
KMC1 140536Z 13004KT 30/17 A3001 RMK A01 T03000171  RH  046%=      5-min Rain = 0
KMC1 140537Z 13004KT 30/17 A3001 RMK A01 T03000171  RH  046%=      5-min Rain = 0
KMC1 140538Z 13003KT 30/17 A3001 RMK A01 T02990172  RH  046%=      5-min Rain = 0
KMC1 140539Z 13004KT 30/17 A3001 RMK A01 T02990171  RH  046%=      5-min Rain = 0
KMC1 140540Z 13004KT 30/17 A3001 RMK A01 T02990172  RH  046%=      5-min Rain = 0
KMC1 140541Z 12004KT 30/17 A3001 RMK A01 T02980171  RH  046%=      5-min Rain = 0
KMC1 140542Z 13003KT 30/17 A3001 RMK A01 T02980171  RH  046%=      5-min Rain = 0
KMC1 140543Z 13004KT 30/17 A3001 RMK A01 T02980171  RH  046%=      5-min Rain = 0
KMC1 140544Z 14004KT 30/17 A3001 RMK A01 T02980171  RH  046%=      5-min Rain = 0
KMC1 140545Z 13004KT 30/17 A3001 RMK A01 T02980170  RH  046%=      5-min Rain = 0
KMC1 140546Z 13004KT 30/17 A3001 RMK A01 T02980170  RH  046%=      5-min Rain = 0
KMC1 140547Z 13004KT 30/17 A3001 RMK A01 T02980170  RH  046%=      5-min Rain = 0
KMC1 140548Z 14005KT 30/17 A3001 RMK A01 T02980170  RH  046%=      5-min Rain = 0
KMC1 140549Z 14005KT 30/17 A3001 RMK A01 T02970169  RH  046%=      5-min Rain = 0
KMC1 140550Z 14004KT 30/17 A3001 RMK A01 T02970169  RH  046%=      5-min Rain = 0
KMC1 140551Z 14004KT 30/17 A3001 RMK A01 T02970169  RH  046%=      5-min Rain = 0
KMC1 140552Z 14005KT 30/17 A3001 RMK A01 T02980169  RH  046%=      5-min Rain = 0
KMC1 140553Z 15004KT 30/17 A3001 RMK A01 T02970169  RH  046%=      5-min Rain = 0
KMC1 140554Z 15004KT 30/17 A3001 RMK A01 T02970168  RH  046%=      5-min Rain = 0
KMC1 140555Z 15005KT 30/17 A3001 RMK A01 T02980168  RH  046%=      5-min Rain = 0
KMC1 140556Z 15004KT 30/17 A3001 RMK A01 T02980168  RH  045%=      5-min Rain = 0
KMC1 140557Z 15005KT 30/17 A3001 RMK A01 T02990168  RH  045%=      5-min Rain = 0
KMC1 140558Z 15004KT 30/17 A3001 RMK A01 T02990168  RH  045%=      5-min Rain = 0
KMC1 140559Z 15005KT 30/17 A3001 RMK A01 T02990167  RH  045%=      5-min Rain = 0
KMC1 140600Z 16005KT 30/17 A3001 RMK A01 T02990167  RH  045%=      5-min Rain = 0
KMC1 140601Z 15006KT 30/17 A3001 RMK A01 T02990168  RH  045%=      5-min Rain = 0
KMC1 140602Z 16005KT 30/17 A3001 RMK A01 T03000167  RH  045%=      5-min Rain = 0
KMC1 140603Z 17004KT 30/17 A3001 RMK A01 T02990167  RH  045%=      5-min Rain = 0
KMC1 140604Z 16005KT 30/17 A3001 RMK A01 T02990167  RH  045%=      5-min Rain = 0
KMC1 140605Z 16006KT 30/17 A3001 RMK A01 T02990167  RH  045%=      5-min Rain = 0
KMC1 140606Z 15005KT 30/17 A3001 RMK A01 T02990168  RH  045%=      5-min Rain = 0
KMC1 140607Z 16006KT 30/17 A3001 RMK A01 T02980167  RH  045%=      5-min Rain = 0
KMC1 140608Z 16006KT 30/17 A3001 RMK A01 T02980167  RH  045%=      5-min Rain = 0
KMC1 140609Z 15005KT 30/17 A3001 RMK A01 T02980167  RH  045%=      5-min Rain = 0
KMC1 140610Z 15006KT 30/17 A3001 RMK A01 T02980167  RH  045%=      5-min Rain = 0
KMC1 140611Z 15005KT 30/17 A3001 RMK A01 T02980166  RH  045%=      5-min Rain = 0
KMC1 140612Z 15005KT 30/17 A3001 RMK A01 T02980166  RH  045%=      5-min Rain = 0
KMC1 140613Z 15007KT 30/17 A3001 RMK A01 T02980166  RH  045%=      5-min Rain = 0
KMC1 140614Z 15005KT 30/17 A3001 RMK A01 T02980166  RH  045%=      5-min Rain = 0
KMC1 140615Z 15007KT 30/17 A3001 RMK A01 T02980166  RH  045%=      5-min Rain = 0
KMC1 140616Z 15008KT 30/17 A3001 RMK A01 T02980166  RH  045%=      5-min Rain = 0
KMC1 140617Z 14009KT 30/17 A3001 RMK A01 T02980166  RH  045%=      5-min Rain = 0
KMC1 140618Z 15007KT 30/17 A3001 RMK A01 T02990165  RH  045%=      5-min Rain = 0
KMC1 140619Z 15007KT 30/17 A3001 RMK A01 T02990165  RH  044%=      5-min Rain = 0
KMC1 140620Z 15009KT 30/17 A3001 RMK A01 T03000166  RH  044%=      5-min Rain = 0
KMC1 140621Z 14009KT 30/17 A3001 RMK A01 T03000165  RH  044%=      5-min Rain = 0
KMC1 140622Z 14006KT 30/17 A3001 RMK A01 T03000166  RH  044%=      5-min Rain = 0
KMC1 140623Z 14007KT 30/17 A3001 RMK A01 T03010166  RH  044%=      5-min Rain = 0
KMC1 140624Z 13009KT 30/17 A3001 RMK A01 T03010166  RH  044%=      5-min Rain = 0
KMC1 140625Z 14008KT 30/17 A3001 RMK A01 T03010166  RH  044%=      5-min Rain = 0
KMC1 140626Z 15007G13KT 30/17 A3001 RMK A01 T03010166  RH  044%=      5-min Rain = 0
KMC1 140627Z 14008KT 30/17 A3001 RMK A01 T03010166  RH  044%=      5-min Rain = 0
KMC1 140628Z 14009KT 30/17 A3001 RMK A01 T03010167  RH  044%=      5-min Rain = 0
KMC1 140629Z 14006KT 30/17 A3001 RMK A01 T03020168  RH  044%=      5-min Rain = 0
KMC1 140630Z 15006G13KT 30/17 A3001 RMK A01 T03020168  RH  045%=      5-min Rain = 0
KMC1 140631Z 15008KT 30/17 A3001 RMK A01 T03010168  RH  045%=      5-min Rain = 0
KMC1 140632Z 15008G13KT 30/17 A3001 RMK A01 T03020168  RH  045%=      5-min Rain = 0
KMC1 140633Z 14009KT 30/17 A3001 RMK A01 T03010168  RH  045%=      5-min Rain = 0
KMC1 140634Z 15007KT 30/17 A3001 RMK A01 T03010169  RH  045%=      5-min Rain = 0
KMC1 140635Z 15008G13KT 30/17 A3001 RMK A01 T03010169  RH  045%=      5-min Rain = 0
KMC1 140636Z 15006KT 30/17 A3001 RMK A01 T03010169  RH  045%=      5-min Rain = 0
KMC1 140637Z 15007KT 30/17 A3001 RMK A01 T03010169  RH  045%=      5-min Rain = 0
KMC1 140638Z 16007KT 30/17 A3001 RMK A01 T03000170  RH  045%=      5-min Rain = 0
KMC1 140639Z 16006KT 30/17 A3001 RMK A01 T03000170  RH  046%=      5-min Rain = 0
KMC1 140640Z 16005KT 30/17 A3001 RMK A01 T03000170  RH  046%=      5-min Rain = 0
KMC1 140641Z 15009KT 30/17 A3001 RMK A01 T02990171  RH  046%=      5-min Rain = 0
KMC1 140642Z 16007KT 30/17 A3001 RMK A01 T02990172  RH  046%=      5-min Rain = 0
KMC1 140643Z 15007KT 30/17 A3002 RMK A01 T02990172  RH  046%=      5-min Rain = 0
KMC1 140644Z 15006KT 30/17 A3002 RMK A01 T02990172  RH  047%=      5-min Rain = 0
KMC1 140645Z 16009KT 30/17 A3002 RMK A01 T02990173  RH  047%=      5-min Rain = 0
KMC1 140646Z 15008KT 30/17 A3002 RMK A01 T02980173  RH  047%=      5-min Rain = 0
KMC1 140647Z 15007KT 30/17 A3002 RMK A01 T02980173  RH  047%=      5-min Rain = 0
KMC1 140648Z 15005KT 30/17 A3002 RMK A01 T02980174  RH  047%=      5-min Rain = 0
KMC1 140649Z 15008G13KT 30/17 A3002 RMK A01 T02980174  RH  047%=      5-min Rain = 0
KMC1 140650Z 15007KT 30/18 A3002 RMK A01 T02970175  RH  048%=      5-min Rain = 0
KMC1 140651Z 16008G13KT 30/18 A3002 RMK A01 T02970175  RH  048%=      5-min Rain = 0
KMC1 140652Z 16008KT 30/18 A3002 RMK A01 T02980176  RH  048%=      5-min Rain = 0
KMC1 140653Z 16006KT 30/18 A3002 RMK A01 T02970176  RH  048%=      5-min Rain = 0
KMC1 140654Z 15007KT 30/18 A3002 RMK A01 T02970176  RH  048%=      5-min Rain = 0
KMC1 140655Z 16007KT 30/18 A3002 RMK A01 T02970177  RH  049%=      5-min Rain = 0
KMC1 140656Z 16008KT 30/18 A3002 RMK A01 T02970178  RH  049%=      5-min Rain = 0
KMC1 140657Z 15009G14KT 30/18 A3002 RMK A01 T02960178  RH  049%=      5-min Rain = 0
KMC1 140658Z 16008KT 30/18 A3002 RMK A01 T02960179  RH  049%=      5-min Rain = 0
KMC1 140659Z 16005KT 30/18 A3002 RMK A01 T02950179  RH  050%=      5-min Rain = 0
KMC1 140700Z 16005KT 30/18 A3002 RMK A01 T02950179  RH  050%=      5-min Rain = 0
KMC1 140701Z 16006KT 29/18 A3002 RMK A01 T02940179  RH  050%=      5-min Rain = 0
KMC1 140702Z 16008KT 29/18 A3002 RMK A01 T02940180  RH  050%=      5-min Rain = 0
KMC1 140703Z 15006KT 29/18 A3002 RMK A01 T02940181  RH  051%=      5-min Rain = 0
KMC1 140704Z 16007KT 29/18 A3002 RMK A01 T02940181  RH  051%=      5-min Rain = 0
KMC1 140705Z 16006KT 29/18 A3002 RMK A01 T02940181  RH  051%=      5-min Rain = 0
KMC1 140706Z 16006KT 29/18 A3002 RMK A01 T02940182  RH  051%=      5-min Rain = 0
KMC1 140707Z 16006KT 29/18 A3002 RMK A01 T02930182  RH  051%=      5-min Rain = 0
KMC1 140708Z 16005KT 29/18 A3002 RMK A01 T02930182  RH  051%=      5-min Rain = 0
KMC1 140709Z 16007KT 29/18 A3002 RMK A01 T02930183  RH  051%=      5-min Rain = 0
KMC1 140710Z 17008KT 29/18 A3002 RMK A01 T02920183  RH  052%=      5-min Rain = 0
KMC1 140711Z 17006KT 29/18 A3002 RMK A01 T02920184  RH  052%=      5-min Rain = 0
KMC1 140712Z 16005KT 29/18 A3002 RMK A01 T02920184  RH  052%=      5-min Rain = 0
KMC1 140713Z 16007KT 29/18 A3002 RMK A01 T02920184  RH  052%=      5-min Rain = 0
KMC1 140714Z 17006KT 29/18 A3002 RMK A01 T02920184  RH  052%=      5-min Rain = 0
KMC1 140715Z 17006KT 29/18 A3002 RMK A01 T02920184  RH  052%=      5-min Rain = 0
KMC1 140716Z 16008KT 29/18 A3002 RMK A01 T02910184  RH  052%=      5-min Rain = 0
KMC1 140717Z 16006KT 29/18 A3002 RMK A01 T02910184  RH  053%=      5-min Rain = 0
KMC1 140718Z 17006KT 29/18 A3002 RMK A01 T02910184  RH  053%=      5-min Rain = 0
KMC1 140719Z 17006KT 29/18 A3002 RMK A01 T02910184  RH  053%=      5-min Rain = 0
KMC1 140720Z 17006KT 29/18 A3002 RMK A01 T02900184  RH  053%=      5-min Rain = 0
KMC1 140721Z 16006KT 29/19 A3002 RMK A01 T02910185  RH  053%=      5-min Rain = 0
KMC1 140722Z 16006KT 29/19 A3002 RMK A01 T02900185  RH  053%=      5-min Rain = 0
KMC1 140723Z 17005KT 29/19 A3002 RMK A01 T02900185  RH  053%=      5-min Rain = 0
KMC1 140724Z 16004KT 29/19 A3002 RMK A01 T02900185  RH  053%=      5-min Rain = 0
KMC1 140725Z 15006KT 29/19 A3002 RMK A01 T02890185  RH  053%=      5-min Rain = 0
KMC1 140726Z 17006KT 29/19 A3002 RMK A01 T02890185  RH  054%=      5-min Rain = 0
KMC1 140727Z 17006KT 29/19 A3002 RMK A01 T02890185  RH  054%=      5-min Rain = 0
KMC1 140728Z 17006KT 29/19 A3002 RMK A01 T02880185  RH  054%=      5-min Rain = 0
KMC1 140729Z 17008KT 29/19 A3002 RMK A01 T02880186  RH  054%=      5-min Rain = 0
KMC1 140730Z 17008KT 29/19 A3002 RMK A01 T02880186  RH  054%=      5-min Rain = 0
KMC1 140731Z 17005KT 29/19 A3002 RMK A01 T02880185  RH  054%=      5-min Rain = 0
KMC1 140732Z 18005KT 29/19 A3002 RMK A01 T02880186  RH  054%=      5-min Rain = 0
KMC1 140733Z 18007KT 29/19 A3002 RMK A01 T02880186  RH  054%=      5-min Rain = 0
KMC1 140734Z 17006KT 29/19 A3002 RMK A01 T02880186  RH  054%=      5-min Rain = 0
KMC1 140735Z 17007KT 29/19 A3002 RMK A01 T02880186  RH  054%=      5-min Rain = 0
KMC1 140736Z 17007KT 29/19 A3002 RMK A01 T02880186  RH  054%=      5-min Rain = 0
KMC1 140737Z 17005KT 29/19 A3002 RMK A01 T02870186  RH  054%=      5-min Rain = 0
KMC1 140738Z 17005KT 29/19 A3002 RMK A01 T02870186  RH  054%=      5-min Rain = 0
KMC1 140739Z 17007KT 29/19 A3002 RMK A01 T02870187  RH  055%=      5-min Rain = 0
KMC1 140740Z 17005KT 29/19 A3002 RMK A01 T02860186  RH  055%=      5-min Rain = 0
KMC1 140741Z 16005KT 29/19 A3002 RMK A01 T02860187  RH  055%=      5-min Rain = 0
KMC1 140742Z 16006KT 29/19 A3002 RMK A01 T02860187  RH  055%=      5-min Rain = 0
KMC1 140743Z 16006KT 29/19 A3002 RMK A01 T02860187  RH  055%=      5-min Rain = 0
KMC1 140744Z 16005KT 29/19 A3002 RMK A01 T02860187  RH  055%=      5-min Rain = 0
KMC1 140745Z 16005KT 29/19 A3002 RMK A01 T02860188  RH  055%=      5-min Rain = 0
KMC1 140746Z 17006KT 29/19 A3002 RMK A01 T02850188  RH  056%=      5-min Rain = 0
KMC1 140747Z 17005KT 29/19 A3002 RMK A01 T02850188  RH  056%=      5-min Rain = 0
KMC1 140748Z 15005KT 29/19 A3002 RMK A01 T02850188  RH  056%=      5-min Rain = 0
KMC1 140749Z 17006KT 29/19 A3002 RMK A01 T02850188  RH  056%=      5-min Rain = 0
KMC1 140750Z 16005KT 29/19 A3002 RMK A01 T02850189  RH  056%=      5-min Rain = 0
KMC1 140751Z 16006KT 29/19 A3002 RMK A01 T02850188  RH  056%=      5-min Rain = 0
KMC1 140752Z 16005KT 29/19 A3002 RMK A01 T02850189  RH  056%=      5-min Rain = 0
KMC1 140753Z 17004KT 29/19 A3002 RMK A01 T02850189  RH  056%=      5-min Rain = 0
KMC1 140754Z 16005KT 28/19 A3002 RMK A01 T02840189  RH  056%=      5-min Rain = 0
KMC1 140755Z 15005KT 28/19 A3002 RMK A01 T02840189  RH  056%=      5-min Rain = 0
KMC1 140756Z 15005KT 28/19 A3002 RMK A01 T02840189  RH  057%=      5-min Rain = 0
KMC1 140757Z 16004KT 28/19 A3002 RMK A01 T02840189  RH  057%=      5-min Rain = 0
KMC1 140758Z 15004KT 28/19 A3002 RMK A01 T02840189  RH  057%=      5-min Rain = 0
KMC1 140759Z 16005KT 28/19 A3002 RMK A01 T02830189  RH  057%=      5-min Rain = 0
KMC1 140800Z 15005KT 28/19 A3002 RMK A01 T02830190  RH  057%=      5-min Rain = 0
KMC1 140801Z 16005KT 28/19 A3002 RMK A01 T02830190  RH  057%=      5-min Rain = 0
KMC1 140802Z 16005KT 28/19 A3002 RMK A01 T02830190  RH  057%=      5-min Rain = 0
KMC1 140803Z 17006KT 28/19 A3003 RMK A01 T02830191  RH  057%=      5-min Rain = 0
KMC1 140804Z 17006KT 28/19 A3003 RMK A01 T02830191  RH  057%=      5-min Rain = 0
KMC1 140805Z 17006KT 28/19 A3003 RMK A01 T02830191  RH  057%=      5-min Rain = 0
KMC1 140806Z 17004KT 28/19 A3003 RMK A01 T02830191  RH  057%=      5-min Rain = 0
KMC1 140807Z 17005KT 28/19 A3002 RMK A01 T02830191  RH  057%=      5-min Rain = 0
KMC1 140808Z 17005KT 28/19 A3002 RMK A01 T02830191  RH  058%=      5-min Rain = 0
KMC1 140809Z 16005KT 28/19 A3002 RMK A01 T02830191  RH  058%=      5-min Rain = 0
KMC1 140810Z 16005KT 28/19 A3002 RMK A01 T02820191  RH  058%=      5-min Rain = 0
KMC1 140811Z 17006KT 28/19 A3002 RMK A01 T02820192  RH  058%=      5-min Rain = 0
KMC1 140812Z 16007KT 28/19 A3002 RMK A01 T02820192  RH  058%=      5-min Rain = 0
KMC1 140813Z 17006KT 28/19 A3002 RMK A01 T02810192  RH  058%=      5-min Rain = 0
KMC1 140814Z 16007KT 28/19 A3002 RMK A01 T02820192  RH  058%=      5-min Rain = 0
KMC1 140815Z 17006KT 28/19 A3002 RMK A01 T02810192  RH  058%=      5-min Rain = 0
KMC1 140816Z 16006KT 28/19 A3002 RMK A01 T02820193  RH  059%=      5-min Rain = 0
KMC1 140817Z 17004KT 28/19 A3002 RMK A01 T02820193  RH  059%=      5-min Rain = 0
KMC1 140818Z 16007KT 28/19 A3002 RMK A01 T02810193  RH  059%=      5-min Rain = 0
KMC1 140819Z 16006KT 28/19 A3002 RMK A01 T02810194  RH  059%=      5-min Rain = 0
KMC1 140820Z 17006KT 28/20 A3002 RMK A01 T02820195  RH  059%=      5-min Rain = 0
KMC1 140821Z 16006KT 28/20 A3002 RMK A01 T02810195  RH  059%=      5-min Rain = 0
KMC1 140822Z 17006KT 28/20 A3002 RMK A01 T02810195  RH  059%=      5-min Rain = 0
KMC1 140823Z 16006KT 28/20 A3002 RMK A01 T02810195  RH  059%=      5-min Rain = 0
KMC1 140824Z 16007KT 28/20 A3002 RMK A01 T02820196  RH  060%=      5-min Rain = 0
KMC1 140825Z 17006KT 28/20 A3002 RMK A01 T02810196  RH  060%=      5-min Rain = 0
KMC1 140826Z 17007KT 28/20 A3002 RMK A01 T02810196  RH  060%=      5-min Rain = 0
KMC1 140827Z 17007KT 28/20 A3002 RMK A01 T02810196  RH  060%=      5-min Rain = 0
KMC1 140828Z 17005KT 28/20 A3002 RMK A01 T02810196  RH  060%=      5-min Rain = 0
KMC1 140829Z 17005KT 28/20 A3002 RMK A01 T02810197  RH  060%=      5-min Rain = 0
KMC1 140830Z 17006KT 28/20 A3002 RMK A01 T02810197  RH  060%=      5-min Rain = 0
KMC1 140831Z 17006KT 28/20 A3002 RMK A01 T02810197  RH  060%=      5-min Rain = 0
KMC1 140832Z 18006KT 28/20 A3002 RMK A01 T02810197  RH  060%=      5-min Rain = 0
KMC1 140833Z 17007KT 28/20 A3002 RMK A01 T02810198  RH  061%=      5-min Rain = 0
KMC1 140834Z 17007KT 28/20 A3002 RMK A01 T02800198  RH  061%=      5-min Rain = 0
KMC1 140835Z 17005KT 28/20 A3002 RMK A01 T02810198  RH  061%=      5-min Rain = 0
KMC1 140836Z 17006KT 28/20 A3002 RMK A01 T02800198  RH  061%=      5-min Rain = 0
KMC1 140837Z 17007KT 28/20 A3002 RMK A01 T02800198  RH  061%=      5-min Rain = 0
KMC1 140838Z 16006KT 28/20 A3002 RMK A01 T02800198  RH  061%=      5-min Rain = 0
KMC1 140839Z 17006KT 28/20 A3002 RMK A01 T02800198  RH  061%=      5-min Rain = 0
KMC1 140840Z 17004KT 28/20 A3002 RMK A01 T02800198  RH  061%=      5-min Rain = 0
KMC1 140841Z 18006KT 28/20 A3002 RMK A01 T02790198  RH  061%=      5-min Rain = 0
KMC1 140842Z 17006KT 28/20 A3002 RMK A01 T02790199  RH  062%=      5-min Rain = 0
KMC1 140843Z 17007KT 28/20 A3002 RMK A01 T02790199  RH  062%=      5-min Rain = 0
KMC1 140844Z 17006KT 28/20 A3002 RMK A01 T02790199  RH  062%=      5-min Rain = 0
KMC1 140845Z 17006KT 28/20 A3002 RMK A01 T02790199  RH  062%=      5-min Rain = 0
KMC1 140846Z 16006KT 28/20 A3002 RMK A01 T02790200  RH  062%=      5-min Rain = 0
KMC1 140847Z 17007KT 28/20 A3002 RMK A01 T02790200  RH  062%=      5-min Rain = 0
KMC1 140848Z 17006KT 28/20 A3002 RMK A01 T02790200  RH  062%=      5-min Rain = 0
KMC1 140849Z 17005KT 28/20 A3002 RMK A01 T02790200  RH  062%=      5-min Rain = 0
KMC1 140850Z 18008KT 28/20 A3002 RMK A01 T02790200  RH  062%=      5-min Rain = 0
KMC1 140851Z 17008KT 28/20 A3002 RMK A01 T02790200  RH  062%=      5-min Rain = 0
KMC1 140852Z 17006KT 28/20 A3002 RMK A01 T02790200  RH  062%=      5-min Rain = 0
KMC1 140853Z 18005KT 28/20 A3002 RMK A01 T02790200  RH  062%=      5-min Rain = 0
KMC1 140854Z 18006KT 28/20 A3002 RMK A01 T02790200  RH  062%=      5-min Rain = 0
KMC1 140855Z 18005KT 28/20 A3002 RMK A01 T02790200  RH  062%=      5-min Rain = 0
KMC1 140856Z 17006KT 28/20 A3002 RMK A01 T02790200  RH  062%=      5-min Rain = 0
KMC1 140857Z 18005KT 28/20 A3002 RMK A01 T02780200  RH  063%=      5-min Rain = 0
KMC1 140858Z 18006KT 28/20 A3002 RMK A01 T02780200  RH  063%=      5-min Rain = 0
KMC1 140859Z 17005KT 28/20 A3002 RMK A01 T02780200  RH  063%=      5-min Rain = 0
KMC1 140900Z 18005G12KT 28/20 A3002 RMK A01 T02780201  RH  063%=      5-min Rain = 0
KMC1 140901Z 18006KT 28/20 A3002 RMK A01 T02780200  RH  063%=      5-min Rain = 0
KMC1 140902Z 18004KT 28/20 A3002 RMK A01 T02780201  RH  063%=      5-min Rain = 0
KMC1 140903Z 18005KT 28/20 A3002 RMK A01 T02780200  RH  063%=      5-min Rain = 0
KMC1 140904Z 20005KT 28/20 A3002 RMK A01 T02780200  RH  063%=      5-min Rain = 0
KMC1 140905Z 21004KT 28/20 A3002 RMK A01 T02770200  RH  063%=      5-min Rain = 0
KMC1 140906Z 21003KT 28/20 A3002 RMK A01 T02770200  RH  063%=      5-min Rain = 0
KMC1 140907Z 24003KT 28/20 A3003 RMK A01 T02770200  RH  063%=      5-min Rain = 0
KMC1 140908Z 26004KT 28/20 A3003 RMK A01 T02760200  RH  063%=      5-min Rain = 0
KMC1 140909Z 27004KT 28/20 A3003 RMK A01 T02760200  RH  063%=      5-min Rain = 0
KMC1 140910Z 27005KT 28/20 A3003 RMK A01 T02760200  RH  063%=      5-min Rain = 0
KMC1 140911Z 27005KT 28/20 A3003 RMK A01 T02750199  RH  063%=      5-min Rain = 0
KMC1 140912Z 27004KT 28/20 A3003 RMK A01 T02750199  RH  063%=      5-min Rain = 0
KMC1 140913Z 26004KT 28/20 A3003 RMK A01 T02750199  RH  063%=      5-min Rain = 0
KMC1 140914Z 27005KT 27/20 A3003 RMK A01 T02740199  RH  064%=      5-min Rain = 0
KMC1 140915Z 26005KT 27/20 A3003 RMK A01 T02740199  RH  064%=      5-min Rain = 0
KMC1 140916Z 25005KT 27/20 A3003 RMK A01 T02730198  RH  063%=      5-min Rain = 0
KMC1 140917Z 25006KT 27/20 A3003 RMK A01 T02730198  RH  063%=      5-min Rain = 0
KMC1 140918Z 24005KT 27/20 A3003 RMK A01 T02730197  RH  063%=      5-min Rain = 0
KMC1 140919Z 23004KT 27/20 A3003 RMK A01 T02730197  RH  063%=      5-min Rain = 0
KMC1 140920Z 21004KT 27/20 A3003 RMK A01 T02730197  RH  063%=      5-min Rain = 0
KMC1 140921Z 22004KT 27/20 A3003 RMK A01 T02730197  RH  063%=      5-min Rain = 0
KMC1 140922Z 20004KT 27/20 A3003 RMK A01 T02730197  RH  063%=      5-min Rain = 0
KMC1 140923Z 20007KT 27/20 A3003 RMK A01 T02720196  RH  063%=      5-min Rain = 0
KMC1 140924Z 19007KT 27/19 A3003 RMK A01 T02730193  RH  062%=      5-min Rain = 0
KMC1 140925Z 21006KT 27/19 A3003 RMK A01 T02740193  RH  061%=      5-min Rain = 0
KMC1 140926Z 20008KT 28/19 A3003 RMK A01 T02750192  RH  060%=      5-min Rain = 0
KMC1 140927Z 21007KT 28/19 A3003 RMK A01 T02760190  RH  060%=      5-min Rain = 0
KMC1 140928Z 21007KT 28/19 A3003 RMK A01 T02760190  RH  059%=      5-min Rain = 0
KMC1 140929Z 21006KT 28/19 A3003 RMK A01 T02770190  RH  059%=      5-min Rain = 0
KMC1 140930Z 21006KT 28/19 A3003 RMK A01 T02780190  RH  059%=      5-min Rain = 0
KMC1 140931Z 22006KT 28/19 A3003 RMK A01 T02780190  RH  059%=      5-min Rain = 0
KMC1 140932Z 22007G12KT 28/19 A3003 RMK A01 T02780192  RH  059%=      5-min Rain = 0
KMC1 140933Z 23005KT 28/19 A3003 RMK A01 T02770193  RH  060%=      5-min Rain = 0
KMC1 140934Z 22005KT 28/19 A3003 RMK A01 T02770194  RH  060%=      5-min Rain = 0
KMC1 140935Z 21005KT 28/19 A3003 RMK A01 T02770194  RH  061%=      5-min Rain = 0
KMC1 140936Z 21004KT 28/19 A3003 RMK A01 T02760194  RH  061%=      5-min Rain = 0
KMC1 140937Z 21004KT 28/19 A3003 RMK A01 T02760194  RH  061%=      5-min Rain = 0
KMC1 140938Z 21003KT 28/20 A3003 RMK A01 T02760195  RH  061%=      5-min Rain = 0
KMC1 140939Z 21005KT 28/20 A3003 RMK A01 T02750195  RH  062%=      5-min Rain = 0
KMC1 140940Z 21004KT 28/20 A3003 RMK A01 T02750195  RH  062%=      5-min Rain = 0
KMC1 140941Z 22004KT 28/20 A3003 RMK A01 T02750196  RH  062%=      5-min Rain = 0
KMC1 140942Z 22004KT 28/20 A3003 RMK A01 T02750196  RH  062%=      5-min Rain = 0
KMC1 140943Z 21003KT 27/20 A3003 RMK A01 T02740195  RH  062%=      5-min Rain = 0
KMC1 140944Z 22002KT 27/20 A3003 RMK A01 T02740196  RH  062%=      5-min Rain = 0
KMC1 140945Z 22003KT 27/20 A3003 RMK A01 T02740196  RH  062%=      5-min Rain = 0
KMC1 140946Z 22003KT 27/20 A3003 RMK A01 T02730196  RH  063%=      5-min Rain = 0
KMC1 140947Z 21003KT 27/20 A3003 RMK A01 T02730196  RH  063%=      5-min Rain = 0
KMC1 140948Z 21003KT 27/20 A3003 RMK A01 T02730196  RH  063%=      5-min Rain = 0
KMC1 140949Z 22002KT 27/20 A3003 RMK A01 T02720196  RH  063%=      5-min Rain = 0
KMC1 140950Z 22002KT 27/20 A3003 RMK A01 T02720196  RH  063%=      5-min Rain = 0
KMC1 140951Z 23002KT 27/20 A3003 RMK A01 T02720197  RH  063%=      5-min Rain = 0
KMC1 140952Z 23001KT 27/20 A3003 RMK A01 T02710196  RH  064%=      5-min Rain = 0
KMC1 140953Z 24002KT 27/20 A3003 RMK A01 T02710197  RH  064%=      5-min Rain = 0
KMC1 140954Z 25002KT 27/20 A3003 RMK A01 T02710197  RH  064%=      5-min Rain = 0
KMC1 140955Z 28001KT 27/20 A3003 RMK A01 T02710197  RH  064%=      5-min Rain = 0
KMC1 140956Z 29001KT 27/20 A3003 RMK A01 T02700197  RH  064%=      5-min Rain = 0
KMC1 140957Z 28001KT 27/20 A3003 RMK A01 T02700197  RH  064%=      5-min Rain = 0
KMC1 140958Z 27001KT 27/20 A3003 RMK A01 T02700197  RH  065%=      5-min Rain = 0
KMC1 140959Z 27002KT 27/20 A3003 RMK A01 T02690197  RH  065%=      5-min Rain = 0
KMC1 141000Z 26002KT 27/20 A3003 RMK A01 T02680197  RH  065%=      5-min Rain = 0
KMC1 141001Z 26002KT 27/20 A3003 RMK A01 T02680197  RH  065%=      5-min Rain = 0
KMC1 141002Z 26002KT 27/20 A3003 RMK A01 T02670197  RH  065%=      5-min Rain = 0
KMC1 141003Z 26003KT 27/20 A3003 RMK A01 T02670197  RH  066%=      5-min Rain = 0
KMC1 141004Z 26003KT 27/20 A3003 RMK A01 T02660197  RH  066%=      5-min Rain = 0
KMC1 141005Z 26003KT 27/20 A3003 RMK A01 T02660197  RH  066%=      5-min Rain = 0
KMC1 141006Z 25002KT 27/20 A3003 RMK A01 T02650197  RH  066%=      5-min Rain = 0
KMC1 141007Z 25003KT 27/20 A3003 RMK A01 T02650198  RH  066%=      5-min Rain = 0
KMC1 141008Z 25002KT 27/20 A3003 RMK A01 T02650198  RH  067%=      5-min Rain = 0
KMC1 141009Z 23004KT 27/20 A3003 RMK A01 T02650198  RH  067%=      5-min Rain = 0
KMC1 141010Z 23003KT 27/20 A3003 RMK A01 T02650198  RH  067%=      5-min Rain = 0
KMC1 141011Z 23003KT 27/20 A3003 RMK A01 T02660199  RH  067%=      5-min Rain = 0
KMC1 141012Z 22002KT 27/20 A3003 RMK A01 T02660198  RH  066%=      5-min Rain = 0
KMC1 141013Z 21003KT 27/20 A3003 RMK A01 T02660199  RH  067%=      5-min Rain = 0
KMC1 141014Z 22003KT 27/20 A3003 RMK A01 T02660199  RH  067%=      5-min Rain = 0
KMC1 141015Z 22003KT 27/20 A3003 RMK A01 T02650199  RH  067%=      5-min Rain = 0
KMC1 141016Z 22004KT 27/20 A3003 RMK A01 T02650198  RH  067%=      5-min Rain = 0
KMC1 141017Z 22004KT 27/20 A3003 RMK A01 T02660198  RH  066%=      5-min Rain = 0
KMC1 141018Z 21003KT 27/20 A3003 RMK A01 T02670198  RH  066%=      5-min Rain = 0
KMC1 141019Z 22003KT 27/20 A3003 RMK A01 T02670198  RH  066%=      5-min Rain = 0
KMC1 141020Z 22003KT 27/20 A3003 RMK A01 T02680198  RH  066%=      5-min Rain = 0
KMC1 141021Z 21002KT 27/20 A3003 RMK A01 T02680198  RH  066%=      5-min Rain = 0
KMC1 141022Z 23002KT 27/20 A3003 RMK A01 T02680198  RH  066%=      5-min Rain = 0
KMC1 141023Z 23002KT 27/20 A3003 RMK A01 T02680199  RH  066%=      5-min Rain = 0
KMC1 141024Z 25001KT 27/20 A3003 RMK A01 T02690199  RH  066%=      5-min Rain = 0
KMC1 141025Z 29002KT 27/20 A3003 RMK A01 T02680199  RH  066%=      5-min Rain = 0
KMC1 141026Z 30002KT 27/20 A3003 RMK A01 T02680199  RH  066%=      5-min Rain = 0
KMC1 141027Z 29001KT 27/20 A3003 RMK A01 T02670199  RH  066%=      5-min Rain = 0
KMC1 141028Z 27001KT 27/20 A3003 RMK A01 T02670199  RH  066%=      5-min Rain = 0
KMC1 141029Z 26001KT 27/20 A3003 RMK A01 T02670199  RH  066%=      5-min Rain = 0
KMC1 141030Z 27001KT 27/20 A3003 RMK A01 T02660199  RH  067%=      5-min Rain = 0
KMC1 141031Z 26001KT 27/20 A3003 RMK A01 T02660199  RH  067%=      5-min Rain = 0
KMC1 141032Z 26001KT 27/20 A3003 RMK A01 T02660199  RH  067%=      5-min Rain = 0
KMC1 141033Z 28001KT 27/20 A3003 RMK A01 T02650199  RH  067%=      5-min Rain = 0
KMC1 141034Z 28002KT 27/20 A3003 RMK A01 T02650199  RH  067%=      5-min Rain = 0
KMC1 141035Z 27002KT 26/20 A3003 RMK A01 T02640200  RH  068%=      5-min Rain = 0
KMC1 141036Z 27002KT 26/20 A3003 RMK A01 T02640199  RH  068%=      5-min Rain = 0
KMC1 141037Z 27002KT 26/20 A3003 RMK A01 T02630199  RH  068%=      5-min Rain = 0
KMC1 141038Z 26001KT 26/20 A3003 RMK A01 T02630199  RH  068%=      5-min Rain = 0
KMC1 141039Z 24001KT 26/20 A3003 RMK A01 T02630199  RH  068%=      5-min Rain = 0
KMC1 141040Z 00000KT 26/20 A3003 RMK A01 T02620198  RH  068%=      5-min Rain = 0
KMC1 141041Z 00000KT 26/20 A3003 RMK A01 T02620198  RH  068%=      5-min Rain = 0
KMC1 141042Z 19000KT 26/20 A3003 RMK A01 T02620198  RH  068%=      5-min Rain = 0
KMC1 141043Z 18001KT 26/20 A3003 RMK A01 T02610198  RH  068%=      5-min Rain = 0
KMC1 141044Z 19001KT 26/20 A3003 RMK A01 T02610198  RH  068%=      5-min Rain = 0
KMC1 141045Z 21000KT 26/20 A3003 RMK A01 T02600198  RH  069%=      5-min Rain = 0
KMC1 141046Z 22001KT 26/20 A3003 RMK A01 T02600198  RH  069%=      5-min Rain = 0
KMC1 141047Z 21002KT 26/20 A3003 RMK A01 T02600197  RH  068%=      5-min Rain = 0
KMC1 141048Z 21002KT 26/20 A3003 RMK A01 T02600198  RH  069%=      5-min Rain = 0
KMC1 141049Z 20002KT 26/20 A3003 RMK A01 T02600198  RH  069%=      5-min Rain = 0
KMC1 141050Z 20002KT 26/20 A3003 RMK A01 T02600197  RH  068%=      5-min Rain = 0
KMC1 141051Z 19003KT 26/20 A3003 RMK A01 T02600197  RH  068%=      5-min Rain = 0
KMC1 141052Z 17004KT 26/20 A3003 RMK A01 T02590196  RH  068%=      5-min Rain = 0
KMC1 141053Z 18004KT 26/20 A3003 RMK A01 T02590196  RH  068%=      5-min Rain = 0
KMC1 141054Z 20003KT 26/20 A3003 RMK A01 T02590196  RH  068%=      5-min Rain = 0
KMC1 141055Z 20003KT 26/20 A3003 RMK A01 T02590196  RH  068%=      5-min Rain = 0
KMC1 141056Z 20003KT 26/20 A3003 RMK A01 T02590196  RH  068%=      5-min Rain = 0
KMC1 141057Z 19003KT 26/20 A3003 RMK A01 T02590196  RH  068%=      5-min Rain = 0
KMC1 141058Z 18003KT 26/20 A3003 RMK A01 T02590196  RH  068%=      5-min Rain = 0
KMC1 141059Z 17003KT 26/20 A3003 RMK A01 T02590195  RH  068%=      5-min Rain = 0
KMC1 141100Z 17004KT 26/20 A3003 RMK A01 T02590196  RH  068%=      5-min Rain = 0
KMC1 141101Z 17004KT 26/20 A3003 RMK A01 T02590197  RH  068%=      5-min Rain = 0
KMC1 141102Z 19004KT 26/20 A3003 RMK A01 T02580196  RH  069%=      5-min Rain = 0
KMC1 141103Z 19004KT 26/20 A3003 RMK A01 T02580197  RH  069%=      5-min Rain = 0
KMC1 141104Z 19003KT 26/20 A3003 RMK A01 T02590197  RH  069%=      5-min Rain = 0
KMC1 141105Z 20004KT 26/20 A3003 RMK A01 T02590197  RH  068%=      5-min Rain = 0
KMC1 141106Z 20003KT 26/20 A3003 RMK A01 T02590196  RH  068%=      5-min Rain = 0
KMC1 141107Z 20003KT 26/20 A3003 RMK A01 T02590196  RH  068%=      5-min Rain = 0
KMC1 141108Z 20003KT 26/20 A3003 RMK A01 T02600197  RH  068%=      5-min Rain = 0
KMC1 141109Z 20003KT 26/20 A3003 RMK A01 T02600197  RH  068%=      5-min Rain = 0
KMC1 141110Z 19003KT 26/20 A3003 RMK A01 T02590197  RH  068%=      5-min Rain = 0
KMC1 141111Z 20002KT 26/20 A3003 RMK A01 T02590196  RH  068%=      5-min Rain = 0
KMC1 141112Z 19002KT 26/20 A3003 RMK A01 T02590196  RH  068%=      5-min Rain = 0
KMC1 141113Z 19003KT 26/20 A3003 RMK A01 T02590196  RH  068%=      5-min Rain = 0
KMC1 141114Z 19003KT 26/20 A3004 RMK A01 T02590196  RH  068%=      5-min Rain = 0
KMC1 141115Z 19003KT 26/20 A3004 RMK A01 T02590196  RH  068%=      5-min Rain = 0
KMC1 141116Z 19003KT 26/20 A3004 RMK A01 T02590196  RH  068%=      5-min Rain = 0
KMC1 141117Z 19002KT 26/20 A3004 RMK A01 T02590196  RH  068%=      5-min Rain = 0
KMC1 141118Z 19002KT 26/20 A3004 RMK A01 T02590196  RH  068%=      5-min Rain = 0
KMC1 141119Z 19002KT 26/20 A3004 RMK A01 T02590195  RH  068%=      5-min Rain = 0
KMC1 141120Z 19002KT 26/20 A3004 RMK A01 T02590196  RH  068%=      5-min Rain = 0
KMC1 141121Z 20002KT 26/20 A3004 RMK A01 T02590196  RH  068%=      5-min Rain = 0
KMC1 141122Z 20002KT 26/20 A3004 RMK A01 T02590196  RH  068%=      5-min Rain = 0
KMC1 141123Z 20002KT 26/20 A3004 RMK A01 T02580195  RH  068%=      5-min Rain = 0
KMC1 141124Z 20003KT 26/20 A3004 RMK A01 T02580195  RH  068%=      5-min Rain = 0
KMC1 141125Z 20002KT 26/20 A3004 RMK A01 T02580195  RH  068%=      5-min Rain = 0
KMC1 141126Z 20002KT 26/20 A3004 RMK A01 T02580195  RH  068%=      5-min Rain = 0
KMC1 141127Z 20002KT 26/20 A3004 RMK A01 T02580195  RH  068%=      5-min Rain = 0
KMC1 141128Z 19003KT 26/20 A3004 RMK A01 T02570195  RH  068%=      5-min Rain = 0
KMC1 141129Z 19002KT 26/20 A3004 RMK A01 T02580195  RH  068%=      5-min Rain = 0
KMC1 141130Z 20002KT 26/20 A3004 RMK A01 T02580195  RH  068%=      5-min Rain = 0
KMC1 141131Z 20002KT 26/20 A3004 RMK A01 T02570195  RH  068%=      5-min Rain = 0
KMC1 141132Z 20002KT 26/19 A3004 RMK A01 T02570194  RH  068%=      5-min Rain = 0
KMC1 141133Z 20002KT 26/20 A3004 RMK A01 T02570195  RH  069%=      5-min Rain = 0
KMC1 141134Z 20002KT 26/20 A3004 RMK A01 T02560195  RH  069%=      5-min Rain = 0
KMC1 141135Z 20002KT 26/19 A3004 RMK A01 T02550194  RH  069%=      5-min Rain = 0
KMC1 141136Z 19001KT 26/19 A3004 RMK A01 T02550194  RH  069%=      5-min Rain = 0
KMC1 141137Z 19001KT 26/19 A3005 RMK A01 T02550194  RH  069%=      5-min Rain = 0
KMC1 141138Z 18001KT 26/19 A3005 RMK A01 T02550194  RH  069%=      5-min Rain = 0
KMC1 141139Z 18001KT 25/19 A3005 RMK A01 T02540194  RH  069%=      5-min Rain = 0
KMC1 141140Z 18001KT 25/20 A3005 RMK A01 T02540195  RH  069%=      5-min Rain = 0
KMC1 141141Z 17001KT 25/20 A3005 RMK A01 T02540195  RH  070%=      5-min Rain = 0
KMC1 141142Z 16001KT 25/19 A3005 RMK A01 T02540194  RH  070%=      5-min Rain = 0
KMC1 141143Z 16001KT 25/19 A3005 RMK A01 T02540194  RH  070%=      5-min Rain = 0
KMC1 141144Z 15002KT 25/19 A3005 RMK A01 T02540194  RH  070%=      5-min Rain = 0
KMC1 141145Z 15002KT 25/19 A3005 RMK A01 T02530194  RH  070%=      5-min Rain = 0
KMC1 141146Z 14002KT 25/19 A3005 RMK A01 T02520194  RH  070%=      5-min Rain = 0
KMC1 141147Z 14002KT 25/19 A3005 RMK A01 T02510193  RH  070%=      5-min Rain = 0
KMC1 141148Z 15002KT 25/19 A3005 RMK A01 T02500193  RH  071%=      5-min Rain = 0
KMC1 141149Z 15003KT 25/19 A3005 RMK A01 T02490193  RH  071%=      5-min Rain = 0
KMC1 141150Z 15003KT 25/19 A3005 RMK A01 T02480193  RH  071%=      5-min Rain = 0
KMC1 141151Z 16003KT 25/19 A3005 RMK A01 T02470193  RH  072%=      5-min Rain = 0
KMC1 141152Z 16003KT 25/19 A3005 RMK A01 T02470193  RH  072%=      5-min Rain = 0
KMC1 141153Z 16003KT 25/19 A3005 RMK A01 T02470192  RH  072%=      5-min Rain = 0
KMC1 141154Z 16003KT 25/19 A3005 RMK A01 T02470193  RH  072%=      5-min Rain = 0
KMC1 141155Z 16004KT 25/19 A3005 RMK A01 T02460192  RH  072%=      5-min Rain = 0
KMC1 141156Z 16004KT 25/19 A3005 RMK A01 T02460192  RH  072%=      5-min Rain = 0
KMC1 141157Z 16004KT 25/19 A3005 RMK A01 T02460192  RH  072%=      5-min Rain = 0
KMC1 141158Z 16004KT 25/19 A3005 RMK A01 T02460192  RH  072%=      5-min Rain = 0
KMC1 141159Z 17004KT 25/19 A3005 RMK A01 T02460192  RH  072%=      5-min Rain = 0
KMC1 141200Z 17004KT 25/19 A3005 RMK A01 T02460192  RH  072%=      5-min Rain = 0
KMC1 141201Z 18004KT 25/19 A3005 RMK A01 T02460191  RH  071%=      5-min Rain = 0
KMC1 141202Z 18004KT 25/19 A3005 RMK A01 T02470192  RH  071%=      5-min Rain = 0
KMC1 141203Z 19003KT 25/19 A3005 RMK A01 T02480191  RH  071%=      5-min Rain = 0
KMC1 141204Z 19003KT 25/19 A3005 RMK A01 T02490192  RH  071%=      5-min Rain = 0
KMC1 141205Z 18003KT 25/19 A3005 RMK A01 T02490192  RH  070%=      5-min Rain = 0
KMC1 141206Z 18003KT 25/19 A3005 RMK A01 T02490192  RH  070%=      5-min Rain = 0
KMC1 141207Z 18003KT 25/19 A3005 RMK A01 T02500192  RH  070%=      5-min Rain = 0
KMC1 141208Z 18002KT 25/19 A3005 RMK A01 T02500191  RH  070%=      5-min Rain = 0
KMC1 141209Z 17002KT 25/19 A3005 RMK A01 T02500191  RH  070%=      5-min Rain = 0
KMC1 141210Z 17002KT 25/19 A3006 RMK A01 T02500191  RH  070%=      5-min Rain = 0
KMC1 141211Z 17002KT 25/19 A3006 RMK A01 T02500192  RH  070%=      5-min Rain = 0
KMC1 141212Z 17002KT 25/19 A3006 RMK A01 T02500192  RH  070%=      5-min Rain = 0
KMC1 141213Z 18002KT 25/19 A3006 RMK A01 T02490192  RH  070%=      5-min Rain = 0
KMC1 141214Z 18002KT 25/19 A3006 RMK A01 T02490192  RH  070%=      5-min Rain = 0
KMC1 141215Z 19002KT 25/19 A3006 RMK A01 T02490192  RH  070%=      5-min Rain = 0
KMC1 141216Z 19001KT 25/19 A3006 RMK A01 T02490191  RH  070%=      5-min Rain = 0
KMC1 141217Z 20001KT 25/19 A3006 RMK A01 T02490192  RH  071%=      5-min Rain = 0
KMC1 141218Z 20001KT 25/19 A3006 RMK A01 T02480192  RH  071%=      5-min Rain = 0
KMC1 141219Z 20002KT 25/19 A3006 RMK A01 T02480192  RH  071%=      5-min Rain = 0
KMC1 141220Z 19002KT 25/19 A3006 RMK A01 T02480192  RH  071%=      5-min Rain = 0
KMC1 141221Z 19002KT 25/19 A3006 RMK A01 T02480192  RH  071%=      5-min Rain = 0
KMC1 141222Z 18002KT 25/19 A3006 RMK A01 T02470191  RH  071%=      5-min Rain = 0
KMC1 141223Z 18002KT 25/19 A3006 RMK A01 T02470191  RH  071%=      5-min Rain = 0
KMC1 141224Z 17003KT 25/19 A3006 RMK A01 T02470191  RH  071%=      5-min Rain = 0
KMC1 141225Z 17003KT 25/19 A3006 RMK A01 T02460191  RH  071%=      5-min Rain = 0
KMC1 141226Z 17003KT 25/19 A3006 RMK A01 T02470192  RH  072%=      5-min Rain = 0
KMC1 141227Z 17003KT 25/19 A3006 RMK A01 T02460192  RH  072%=      5-min Rain = 0
KMC1 141228Z 17003KT 25/19 A3006 RMK A01 T02460192  RH  072%=      5-min Rain = 0
KMC1 141229Z 17004KT 25/19 A3006 RMK A01 T02460192  RH  072%=      5-min Rain = 0
KMC1 141230Z 17004KT 25/19 A3006 RMK A01 T02460191  RH  072%=      5-min Rain = 0
KMC1 141231Z 18003KT 25/19 A3006 RMK A01 T02460191  RH  072%=      5-min Rain = 0
KMC1 141232Z 18003KT 25/19 A3006 RMK A01 T02460192  RH  072%=      5-min Rain = 0
KMC1 141233Z 18003KT 25/19 A3006 RMK A01 T02460192  RH  072%=      5-min Rain = 0
KMC1 141234Z 17003KT 25/19 A3006 RMK A01 T02460191  RH  071%=      5-min Rain = 0
KMC1 141235Z 17003KT 25/19 A3006 RMK A01 T02470192  RH  071%=      5-min Rain = 0
KMC1 141236Z 18003KT 25/19 A3006 RMK A01 T02470192  RH  071%=      5-min Rain = 0
KMC1 141237Z 18003KT 25/19 A3006 RMK A01 T02470192  RH  071%=      5-min Rain = 0
KMC1 141238Z 18003KT 25/19 A3006 RMK A01 T02480192  RH  071%=      5-min Rain = 0
KMC1 141239Z 17003KT 25/19 A3006 RMK A01 T02480192  RH  071%=      5-min Rain = 0
KMC1 141240Z 17004KT 25/19 A3006 RMK A01 T02480192  RH  071%=      5-min Rain = 0
KMC1 141241Z 16004KT 25/19 A3006 RMK A01 T02480193  RH  071%=      5-min Rain = 0
KMC1 141242Z 17004KT 25/19 A3006 RMK A01 T02490193  RH  071%=      5-min Rain = 0
KMC1 141243Z 16004KT 25/19 A3006 RMK A01 T02490193  RH  071%=      5-min Rain = 0
KMC1 141244Z 16004KT 25/19 A3006 RMK A01 T02490193  RH  071%=      5-min Rain = 0
KMC1 141245Z 17003KT 25/19 A3006 RMK A01 T02490193  RH  071%=      5-min Rain = 0
KMC1 141246Z 17003KT 25/19 A3006 RMK A01 T02500194  RH  071%=      5-min Rain = 0
KMC1 141247Z 18003KT 25/19 A3006 RMK A01 T02500194  RH  071%=      5-min Rain = 0
KMC1 141248Z 19003KT 25/19 A3006 RMK A01 T02500193  RH  071%=      5-min Rain = 0
KMC1 141249Z 19003KT 25/19 A3006 RMK A01 T02510194  RH  071%=      5-min Rain = 0
KMC1 141250Z 20003KT 25/19 A3006 RMK A01 T02510194  RH  071%=      5-min Rain = 0
KMC1 141251Z 20003KT 25/19 A3006 RMK A01 T02510194  RH  071%=      5-min Rain = 0
KMC1 141252Z 20003KT 25/20 A3006 RMK A01 T02520195  RH  070%=      5-min Rain = 0
KMC1 141253Z 21003KT 25/20 A3006 RMK A01 T02520195  RH  070%=      5-min Rain = 0
KMC1 141254Z 20003KT 25/20 A3006 RMK A01 T02530195  RH  070%=      5-min Rain = 0
KMC1 141255Z 20004KT 25/20 A3006 RMK A01 T02530195  RH  070%=      5-min Rain = 0
KMC1 141256Z 20003KT 25/20 A3006 RMK A01 T02540196  RH  070%=      5-min Rain = 0
KMC1 141257Z 20003KT 25/20 A3006 RMK A01 T02540196  RH  070%=      5-min Rain = 0
KMC1 141258Z 20003KT 25/20 A3006 RMK A01 T02540196  RH  070%=      5-min Rain = 0
KMC1 141259Z 20002KT 25/20 A3006 RMK A01 T02540196  RH  070%=      5-min Rain = 0
KMC1 141300Z 20003KT 25/20 A3006 RMK A01 T02540196  RH  070%=      5-min Rain = 0
KMC1 141301Z 19002KT 26/20 A3006 RMK A01 T02550196  RH  070%=      5-min Rain = 0
KMC1 141302Z 19002KT 26/20 A3006 RMK A01 T02550196  RH  070%=      5-min Rain = 0
KMC1 141303Z 19003KT 26/20 A3006 RMK A01 T02560196  RH  070%=      5-min Rain = 0
KMC1 141304Z 19003KT 26/20 A3006 RMK A01 T02550196  RH  070%=      5-min Rain = 0
KMC1 141305Z 19003KT 26/20 A3006 RMK A01 T02560196  RH  070%=      5-min Rain = 0
KMC1 141306Z 19003KT 26/20 A3006 RMK A01 T02560196  RH  070%=      5-min Rain = 0
KMC1 141307Z 19003KT 26/20 A3006 RMK A01 T02560197  RH  070%=      5-min Rain = 0
KMC1 141308Z 19003KT 26/20 A3006 RMK A01 T02570196  RH  069%=      5-min Rain = 0
KMC1 141309Z 19003KT 26/20 A3006 RMK A01 T02570197  RH  069%=      5-min Rain = 0
KMC1 141310Z 19002KT 26/20 A3006 RMK A01 T02570197  RH  069%=      5-min Rain = 0
KMC1 141311Z 20003KT 26/20 A3006 RMK A01 T02580197  RH  069%=      5-min Rain = 0
KMC1 141312Z 20003KT 26/20 A3006 RMK A01 T02580196  RH  069%=      5-min Rain = 0
KMC1 141313Z 20002KT 26/20 A3006 RMK A01 T02580197  RH  069%=      5-min Rain = 0
KMC1 141314Z 20003KT 26/20 A3006 RMK A01 T02580197  RH  069%=      5-min Rain = 0
KMC1 141315Z 19003KT 26/20 A3006 RMK A01 T02580197  RH  069%=      5-min Rain = 0
KMC1 141316Z 19003KT 26/20 A3006 RMK A01 T02580197  RH  069%=      5-min Rain = 0
KMC1 141317Z 19004KT 26/20 A3006 RMK A01 T02590197  RH  069%=      5-min Rain = 0
KMC1 141318Z 19003KT 26/20 A3006 RMK A01 T02590197  RH  069%=      5-min Rain = 0
KMC1 141319Z 19004KT 26/20 A3006 RMK A01 T02600198  RH  069%=      5-min Rain = 0
KMC1 141320Z 18003KT 26/20 A3006 RMK A01 T02610198  RH  068%=      5-min Rain = 0
KMC1 141321Z 18003KT 26/20 A3007 RMK A01 T02610198  RH  068%=      5-min Rain = 0
KMC1 141322Z 18003KT 26/20 A3007 RMK A01 T02620198  RH  068%=      5-min Rain = 0
KMC1 141323Z 20004KT 26/20 A3007 RMK A01 T02630198  RH  068%=      5-min Rain = 0
KMC1 141324Z 18004KT 26/20 A3007 RMK A01 T02640199  RH  067%=      5-min Rain = 0
KMC1 141325Z 19005KT 26/20 A3007 RMK A01 T02640199  RH  067%=      5-min Rain = 0
KMC1 141326Z 20004KT 27/20 A3007 RMK A01 T02650199  RH  067%=      5-min Rain = 0
KMC1 141327Z 18002KT 27/20 A3007 RMK A01 T02660199  RH  067%=      5-min Rain = 0
KMC1 141328Z 20003KT 27/20 A3007 RMK A01 T02670200  RH  067%=      5-min Rain = 0
KMC1 141329Z 20004KT 27/20 A3007 RMK A01 T02670200  RH  067%=      5-min Rain = 0
KMC1 141330Z 20005KT 27/20 A3007 RMK A01 T02670200  RH  066%=      5-min Rain = 0
KMC1 141331Z 20004KT 27/20 A3007 RMK A01 T02680201  RH  066%=      5-min Rain = 0
KMC1 141332Z 19003KT 27/20 A3007 RMK A01 T02690200  RH  066%=      5-min Rain = 0
KMC1 141333Z 21002KT 27/20 A3007 RMK A01 T02700201  RH  066%=      5-min Rain = 0
KMC1 141334Z 20003KT 27/20 A3007 RMK A01 T02710202  RH  066%=      5-min Rain = 0
KMC1 141335Z 20003KT 27/20 A3007 RMK A01 T02720202  RH  065%=      5-min Rain = 0
KMC1 141336Z 19002KT 27/20 A3007 RMK A01 T02730202  RH  065%=      5-min Rain = 0
KMC1 141337Z 21002KT 27/20 A3007 RMK A01 T02740202  RH  065%=      5-min Rain = 0
KMC1 141338Z 21003KT 28/20 A3007 RMK A01 T02750203  RH  065%=      5-min Rain = 0
KMC1 141339Z 20003KT 27/20 A3007 RMK A01 T02740202  RH  065%=      5-min Rain = 0
KMC1 141340Z 22004KT 28/20 A3007 RMK A01 T02750203  RH  065%=      5-min Rain = 0
KMC1 141341Z 21004KT 28/20 A3007 RMK A01 T02760203  RH  064%=      5-min Rain = 0
KMC1 141342Z 21006KT 28/20 A3008 RMK A01 T02770203  RH  064%=      5-min Rain = 0
KMC1 141343Z 21004KT 28/20 A3008 RMK A01 T02770203  RH  064%=      5-min Rain = 0
KMC1 141344Z 22005KT 28/20 A3008 RMK A01 T02770203  RH  064%=      5-min Rain = 0
KMC1 141345Z 20004KT 28/20 A3008 RMK A01 T02770204  RH  064%=      5-min Rain = 0
KMC1 141346Z 20004KT 28/20 A3008 RMK A01 T02770204  RH  064%=      5-min Rain = 0
KMC1 141347Z 19004KT 28/20 A3008 RMK A01 T02780204  RH  064%=      5-min Rain = 0
KMC1 141348Z 19003KT 28/20 A3008 RMK A01 T02790204  RH  064%=      5-min Rain = 0
KMC1 141349Z 20003KT 28/20 A3008 RMK A01 T02810204  RH  063%=      5-min Rain = 0
KMC1 141350Z 19004KT 28/21 A3008 RMK A01 T02810205  RH  063%=      5-min Rain = 0
KMC1 141351Z 20005KT 28/21 A3008 RMK A01 T02820205  RH  063%=      5-min Rain = 0
KMC1 141352Z 19004KT 28/21 A3008 RMK A01 T02830206  RH  063%=      5-min Rain = 0
KMC1 141353Z 20006KT 29/21 A3008 RMK A01 T02850206  RH  062%=      5-min Rain = 0
KMC1 141354Z 19005KT 29/21 A3008 RMK A01 T02850205  RH  062%=      5-min Rain = 0
KMC1 141355Z 20005KT 28/21 A3008 RMK A01 T02840206  RH  062%=      5-min Rain = 0
KMC1 141356Z 20004KT 28/21 A3008 RMK A01 T02840206  RH  063%=      5-min Rain = 0
KMC1 141357Z 20003KT 28/21 A3008 RMK A01 T02840206  RH  063%=      5-min Rain = 0
KMC1 141358Z 21006KT 29/21 A3008 RMK A01 T02860207  RH  062%=      5-min Rain = 0
KMC1 141359Z 20006KT 29/21 A3008 RMK A01 T02860206  RH  062%=      5-min Rain = 0
KMC1 141400Z 21005KT 29/21 A3008 RMK A01 T02850206  RH  062%=      5-min Rain = 0
KMC1 141401Z 22005KT 29/21 A3008 RMK A01 T02850207  RH  063%=      5-min Rain = 0
KMC1 141402Z 19005KT 29/21 A3008 RMK A01 T02850206  RH  063%=      5-min Rain = 0
KMC1 141403Z 19005KT 29/21 A3008 RMK A01 T02860206  RH  062%=      5-min Rain = 0
KMC1 141404Z 21005KT 29/21 A3008 RMK A01 T02870207  RH  062%=      5-min Rain = 0
KMC1 141405Z 21005KT 29/21 A3008 RMK A01 T02870207  RH  062%=      5-min Rain = 0
KMC1 141406Z 21005KT 29/21 A3008 RMK A01 T02880207  RH  062%=      5-min Rain = 0
KMC1 141407Z 21003KT 29/21 A3008 RMK A01 T02880208  RH  062%=      5-min Rain = 0
KMC1 141408Z 19005KT 29/21 A3008 RMK A01 T02880208  RH  062%=      5-min Rain = 0
KMC1 141409Z 20006KT 29/21 A3008 RMK A01 T02890207  RH  061%=      5-min Rain = 0
KMC1 141410Z 20006KT 29/21 A3008 RMK A01 T02890207  RH  062%=      5-min Rain = 0
KMC1 141411Z 20004KT 29/21 A3008 RMK A01 T02880207  RH  062%=      5-min Rain = 0
KMC1 141412Z 19004KT 29/21 A3008 RMK A01 T02880208  RH  062%=      5-min Rain = 0
KMC1 141413Z 20004KT 29/21 A3008 RMK A01 T02890208  RH  061%=      5-min Rain = 0
KMC1 141414Z 18006KT 29/21 A3008 RMK A01 T02910207  RH  061%=      5-min Rain = 0
KMC1 141415Z 18006KT 29/21 A3008 RMK A01 T02910208  RH  061%=      5-min Rain = 0
KMC1 141416Z 19004KT 29/21 A3008 RMK A01 T02910208  RH  061%=      5-min Rain = 0
KMC1 141417Z 20004KT 29/21 A3008 RMK A01 T02910208  RH  061%=      5-min Rain = 0
KMC1 141418Z 20004KT 29/21 A3008 RMK A01 T02910208  RH  061%=      5-min Rain = 0
KMC1 141419Z 20004KT 29/21 A3008 RMK A01 T02900208  RH  061%=      5-min Rain = 0
KMC1 141420Z 21005KT 29/21 A3008 RMK A01 T02890208  RH  061%=      5-min Rain = 0
KMC1 141421Z 19004KT 29/21 A3008 RMK A01 T02890207  RH  061%=      5-min Rain = 0
KMC1 141422Z 19004KT 29/21 A3008 RMK A01 T02890207  RH  061%=      5-min Rain = 0
KMC1 141423Z 19004KT 29/21 A3008 RMK A01 T02880207  RH  061%=      5-min Rain = 0
KMC1 141424Z 19002KT 29/21 A3008 RMK A01 T02890208  RH  061%=      5-min Rain = 0
KMC1 141425Z 19004KT 29/21 A3008 RMK A01 T02900208  RH  061%=      5-min Rain = 0
KMC1 141426Z 19003KT 29/21 A3008 RMK A01 T02900207  RH  061%=      5-min Rain = 0
KMC1 141427Z 20005KT 29/21 A3008 RMK A01 T02910208  RH  061%=      5-min Rain = 0
KMC1 141428Z 19004KT 29/21 A3008 RMK A01 T02900207  RH  061%=      5-min Rain = 0
KMC1 141429Z 20002KT 29/21 A3008 RMK A01 T02910208  RH  061%=      5-min Rain = 0
KMC1 141430Z 21002KT 29/21 A3008 RMK A01 T02910208  RH  061%=      5-min Rain = 0
KMC1 141431Z 23003KT 29/21 A3008 RMK A01 T02920209  RH  061%=      5-min Rain = 0
KMC1 141432Z 21004KT 29/21 A3008 RMK A01 T02930209  RH  061%=      5-min Rain = 0
KMC1 141433Z 21003KT 29/21 A3008 RMK A01 T02930208  RH  060%=      5-min Rain = 0
KMC1 141434Z 21003KT 29/21 A3008 RMK A01 T02940209  RH  060%=      5-min Rain = 0
KMC1 141435Z 22003KT 30/21 A3008 RMK A01 T02960209  RH  060%=      5-min Rain = 0
KMC1 141436Z 21005KT 30/21 A3008 RMK A01 T02960208  RH  059%=      5-min Rain = 0
KMC1 141437Z 21005KT 30/21 A3008 RMK A01 T02960208  RH  059%=      5-min Rain = 0
KMC1 141438Z 23005KT 30/21 A3008 RMK A01 T02950206  RH  059%=      5-min Rain = 0
KMC1 141439Z 25004KT 30/21 A3008 RMK A01 T02950206  RH  059%=      5-min Rain = 0
KMC1 141440Z 24005KT 30/21 A3008 RMK A01 T02960207  RH  059%=      5-min Rain = 0
KMC1 141441Z 24006KT 30/21 A3008 RMK A01 T02970206  RH  058%=      5-min Rain = 0
KMC1 141442Z 23006KT 30/21 A3009 RMK A01 T02970206  RH  058%=      5-min Rain = 0
KMC1 141443Z 25004KT 30/21 A3009 RMK A01 T02970205  RH  058%=      5-min Rain = 0
KMC1 141444Z 24002KT 30/21 A3009 RMK A01 T02970207  RH  058%=      5-min Rain = 0
KMC1 141445Z 24003KT 30/21 A3009 RMK A01 T02970206  RH  058%=      5-min Rain = 0
KMC1 141446Z 25002KT 30/21 A3009 RMK A01 T02990206  RH  057%=      5-min Rain = 0
KMC1 141447Z 24003KT 30/21 A3009 RMK A01 T03000205  RH  057%=      5-min Rain = 0
KMC1 141448Z 25003KT 30/21 A3009 RMK A01 T02990206  RH  057%=      5-min Rain = 0
KMC1 141449Z 24002KT 30/21 A3009 RMK A01 T02990205  RH  057%=      5-min Rain = 0
KMC1 141450Z 23002KT 30/21 A3009 RMK A01 T02990206  RH  057%=      5-min Rain = 0
KMC1 141451Z 20003KT 30/21 A3009 RMK A01 T03000206  RH  057%=      5-min Rain = 0
KMC1 141452Z 20003KT 30/21 A3009 RMK A01 T03000205  RH  057%=      5-min Rain = 0
KMC1 141453Z 23003KT 30/21 A3009 RMK A01 T03000206  RH  057%=      5-min Rain = 0
KMC1 141454Z 24003KT 30/21 A3009 RMK A01 T03010205  RH  056%=      5-min Rain = 0
KMC1 141455Z 23004KT 30/20 A3009 RMK A01 T03030204  RH  055%=      5-min Rain = 0
KMC1 141456Z 20004KT 30/20 A3009 RMK A01 T03040204  RH  055%=      5-min Rain = 0
KMC1 141457Z 19003KT 30/20 A3009 RMK A01 T03040203  RH  055%=      5-min Rain = 0
KMC1 141458Z 22001KT 30/20 A3009 RMK A01 T03040203  RH  055%=      5-min Rain = 0
KMC1 141459Z 21003KT 30/20 A3009 RMK A01 T03040204  RH  055%=      5-min Rain = 0
KMC1 141500Z 19004KT 30/20 A3009 RMK A01 T03040203  RH  055%=      5-min Rain = 0
KMC1 141501Z 18004KT 30/20 A3009 RMK A01 T03030203  RH  055%=      5-min Rain = 0
KMC1 141502Z 21004KT 30/20 A3009 RMK A01 T03030202  RH  055%=      5-min Rain = 0
KMC1 141503Z 19003KT 30/20 A3009 RMK A01 T03020201  RH  055%=      5-min Rain = 0
KMC1 141504Z 22005KT 30/20 A3009 RMK A01 T03010199  RH  054%=      5-min Rain = 0
KMC1 141505Z 21004KT 30/20 A3009 RMK A01 T03010195  RH  053%=      5-min Rain = 0
KMC1 141506Z 21002KT 30/20 A3009 RMK A01 T03010197  RH  054%=      5-min Rain = 0
KMC1 141507Z 21001KT 30/20 A3009 RMK A01 T03020199  RH  054%=      5-min Rain = 0
KMC1 141508Z 20001KT 30/20 A3009 RMK A01 T03040198  RH  053%=      5-min Rain = 0
KMC1 141509Z 27000KT 31/20 A3009 RMK A01 T03050198  RH  053%=      5-min Rain = 0
KMC1 141510Z 24002KT 31/20 A3009 RMK A01 T03060199  RH  053%=      5-min Rain = 0
KMC1 141511Z 23002KT 31/20 A3009 RMK A01 T03070200  RH  053%=      5-min Rain = 0
KMC1 141512Z 21004KT 31/20 A3009 RMK A01 T03080203  RH  054%=      5-min Rain = 0
KMC1 141513Z 22004KT 31/20 A3009 RMK A01 T03080204  RH  054%=      5-min Rain = 0
KMC1 141514Z 19004KT 31/20 A3009 RMK A01 T03080203  RH  053%=      5-min Rain = 0
KMC1 141515Z 19003KT 31/20 A3009 RMK A01 T03080203  RH  054%=      5-min Rain = 0
KMC1 141516Z 19003KT 31/20 A3009 RMK A01 T03060203  RH  054%=      5-min Rain = 0
KMC1 141517Z 26002KT 30/20 A301 RMK A01 T03040203  RH  055%=      5-min Rain = 0
KMC1 141518Z 26004KT 30/20 A301 RMK A01 T03030200  RH  054%=      5-min Rain = 0
KMC1 141519Z 26004KT 30/20 A301 RMK A01 T03030197  RH  053%=      5-min Rain = 0
KMC1 141520Z 26004KT 30/20 A301 RMK A01 T03030196  RH  053%=      5-min Rain = 0
KMC1 141521Z 25005KT 30/19 A301 RMK A01 T03030193  RH  052%=      5-min Rain = 0
KMC1 141522Z 25004KT 30/19 A301 RMK A01 T03030193  RH  052%=      5-min Rain = 0
KMC1 141523Z 24003KT 30/19 A301 RMK A01 T03030193  RH  052%=      5-min Rain = 0
KMC1 141524Z 25003KT 30/19 A301 RMK A01 T03030194  RH  052%=      5-min Rain = 0
KMC1 141525Z 26004KT 30/19 A301 RMK A01 T03040194  RH  052%=      5-min Rain = 0
KMC1 141526Z 25003KT 31/19 A301 RMK A01 T03050194  RH  052%=      5-min Rain = 0
KMC1 141527Z 25003KT 31/19 A301 RMK A01 T03060194  RH  051%=      5-min Rain = 0
KMC1 141528Z 24004KT 31/19 A301 RMK A01 T03070194  RH  051%=      5-min Rain = 0
KMC1 141529Z 25004KT 31/20 A301 RMK A01 T03070195  RH  051%=      5-min Rain = 0
KMC1 141530Z 26003KT 31/20 A301 RMK A01 T03080196  RH  051%=      5-min Rain = 0
KMC1 141531Z 25002KT 31/20 A301 RMK A01 T03080195  RH  051%=      5-min Rain = 0
KMC1 141532Z 26002KT 31/20 A301 RMK A01 T03090196  RH  051%=      5-min Rain = 0
KMC1 141533Z 25003KT 31/20 A301 RMK A01 T03090195  RH  051%=      5-min Rain = 0
KMC1 141534Z 24003KT 31/20 A301 RMK A01 T03100195  RH  051%=      5-min Rain = 0
KMC1 141535Z 26004KT 31/20 A301 RMK A01 T03100195  RH  050%=      5-min Rain = 0
KMC1 141536Z 28004KT 31/20 A301 RMK A01 T03100195  RH  050%=      5-min Rain = 0
KMC1 141537Z 27004KT 31/20 A301 RMK A01 T03100196  RH  051%=      5-min Rain = 0
KMC1 141538Z 27003KT 31/20 A301 RMK A01 T03120196  RH  050%=      5-min Rain = 0
KMC1 141539Z 25003KT 32/20 A301 RMK A01 T03150197  RH  050%=      5-min Rain = 0
KMC1 141540Z 27004KT 32/20 A301 RMK A01 T03180198  RH  049%=      5-min Rain = 0
KMC1 141541Z 26004KT 32/20 A301 RMK A01 T03220198  RH  048%=      5-min Rain = 0
KMC1 141542Z 25001KT 32/20 A301 RMK A01 T03240197  RH  047%=      5-min Rain = 0
KMC1 141543Z 24003KT 32/20 A301 RMK A01 T03230197  RH  047%=      5-min Rain = 0
KMC1 141544Z 23003KT 32/20 A301 RMK A01 T03230197  RH  047%=      5-min Rain = 0
KMC1 141545Z 23002KT 32/20 A301 RMK A01 T03220197  RH  048%=      5-min Rain = 0
KMC1 141546Z 25003KT 32/20 A301 RMK A01 T03220196  RH  047%=      5-min Rain = 0
KMC1 141547Z 23002KT 32/20 A301 RMK A01 T03220197  RH  048%=      5-min Rain = 0
KMC1 141548Z 25002KT 33/20 A301 RMK A01 T03250199  RH  047%=      5-min Rain = 0
KMC1 141549Z 26004KT 33/20 A301 RMK A01 T03290197  RH  046%=      5-min Rain = 0
KMC1 141550Z 25004KT 33/20 A301 RMK A01 T03290197  RH  046%=      5-min Rain = 0
KMC1 141551Z 27005KT 33/20 A301 RMK A01 T03290196  RH  045%=      5-min Rain = 0
KMC1 141552Z 26005KT 33/20 A301 RMK A01 T03280196  RH  046%=      5-min Rain = 0
KMC1 141553Z 26003KT 33/20 A301 RMK A01 T03270196  RH  046%=      5-min Rain = 0
KMC1 141554Z 27003KT 33/20 A301 RMK A01 T03260197  RH  046%=      5-min Rain = 0
KMC1 141555Z 22004KT 33/20 A301 RMK A01 T03280197  RH  046%=      5-min Rain = 0
KMC1 141556Z 20005KT 33/20 A301 RMK A01 T03280195  RH  046%=      5-min Rain = 0
KMC1 141557Z 21005KT 33/20 A3011 RMK A01 T03260195  RH  046%=      5-min Rain = 0
KMC1 141558Z 17003KT 33/20 A301 RMK A01 T03250195  RH  046%=      5-min Rain = 0
KMC1 141559Z 20004KT 33/20 A301 RMK A01 T03250195  RH  046%=      5-min Rain = 0
KMC1 141600Z 19004KT 33/20 A3011 RMK A01 T03270195  RH  046%=      5-min Rain = 0
KMC1 141601Z 18003KT 33/20 A3011 RMK A01 T03290195  RH  045%=      5-min Rain = 0
KMC1 141602Z 20006KT 33/20 A301 RMK A01 T03290195  RH  045%=      5-min Rain = 0
KMC1 141603Z 20006KT 33/20 A3011 RMK A01 T03290196  RH  045%=      5-min Rain = 0
KMC1 141604Z 20004KT 33/19 A3011 RMK A01 T03280194  RH  045%=      5-min Rain = 0
KMC1 141605Z 21004KT 33/20 A3011 RMK A01 T03290195  RH  045%=      5-min Rain = 0
KMC1 141606Z 24004KT 33/20 A3011 RMK A01 T03300196  RH  045%=      5-min Rain = 0
KMC1 141607Z 24003KT 33/20 A3011 RMK A01 T03300195  RH  045%=      5-min Rain = 0
KMC1 141608Z 24004KT 33/20 A3011 RMK A01 T03280196  RH  046%=      5-min Rain = 0
KMC1 141609Z 25004KT 33/20 A3011 RMK A01 T03300197  RH  046%=      5-min Rain = 0
KMC1 141610Z 23002KT 33/20 A3011 RMK A01 T03320196  RH  045%=      5-min Rain = 0
KMC1 141611Z 27002KT 33/20 A3011 RMK A01 T03300196  RH  045%=      5-min Rain = 0
KMC1 141612Z 25002KT 33/20 A3011 RMK A01 T03310197  RH  045%=      5-min Rain = 0
KMC1 141613Z 31000KT 33/19 A3011 RMK A01 T03330194  RH  044%=      5-min Rain = 0
KMC1 141614Z 24000KT 33/19 A3011 RMK A01 T03320194  RH  044%=      5-min Rain = 0
KMC1 141615Z 24002KT 33/20 A3011 RMK A01 T03310195  RH  045%=      5-min Rain = 0
KMC1 141616Z 21006KT 33/20 A3011 RMK A01 T03310195  RH  045%=      5-min Rain = 0
KMC1 141617Z 22005KT 33/20 A3011 RMK A01 T03320196  RH  045%=      5-min Rain = 0
KMC1 141618Z 21002KT 33/20 A3011 RMK A01 T03310195  RH  045%=      5-min Rain = 0
KMC1 141619Z 20004KT 33/20 A3011 RMK A01 T03300196  RH  045%=      5-min Rain = 0
KMC1 141620Z 22006KT 33/19 A3011 RMK A01 T03310193  RH  044%=      5-min Rain = 0
KMC1 141621Z 20006KT 33/19 A3011 RMK A01 T03300194  RH  045%=      5-min Rain = 0
KMC1 141622Z 19004KT 33/19 A3011 RMK A01 T03280193  RH  045%=      5-min Rain = 0
KMC1 141623Z 19004KT 33/19 A3011 RMK A01 T03270193  RH  045%=      5-min Rain = 0
KMC1 141624Z 19003KT 33/19 A3011 RMK A01 T03260193  RH  045%=      5-min Rain = 0
KMC1 141625Z 18003KT 32/19 A3011 RMK A01 T03240192  RH  046%=      5-min Rain = 0
KMC1 141626Z 16002KT 32/19 A3011 RMK A01 T03230191  RH  046%=      5-min Rain = 0
KMC1 141627Z 14002KT 32/19 A3011 RMK A01 T03210191  RH  046%=      5-min Rain = 0
KMC1 141628Z 13002KT 32/19 A3011 RMK A01 T03210192  RH  047%=      5-min Rain = 0
KMC1 141629Z 10001KT 32/19 A3011 RMK A01 T03220193  RH  047%=      5-min Rain = 0
KMC1 141630Z 18001KT 32/19 A3011 RMK A01 T03220193  RH  047%=      5-min Rain = 0
KMC1 141631Z 19002KT 32/19 A3011 RMK A01 T03220194  RH  047%=      5-min Rain = 0
KMC1 141632Z 26003KT 32/19 A3011 RMK A01 T03220194  RH  047%=      5-min Rain = 0
KMC1 141633Z 29002KT 32/19 A3011 RMK A01 T03220194  RH  047%=      5-min Rain = 0
KMC1 141634Z 30002KT 32/19 A3011 RMK A01 T03220194  RH  047%=      5-min Rain = 0
KMC1 141635Z 29002KT 32/19 A3011 RMK A01 T03220194  RH  047%=      5-min Rain = 0
KMC1 141636Z 24001KT 32/19 A3011 RMK A01 T03220194  RH  047%=      5-min Rain = 0
KMC1 141637Z 28001KT 32/20 A3011 RMK A01 T03230195  RH  047%=      5-min Rain = 0
KMC1 141638Z 26002KT 32/20 A3011 RMK A01 T03230195  RH  047%=      5-min Rain = 0
KMC1 141639Z 23002KT 32/20 A3011 RMK A01 T03240195  RH  047%=      5-min Rain = 0
KMC1 141640Z 26002KT 32/19 A3011 RMK A01 T03240194  RH  046%=      5-min Rain = 0
KMC1 141641Z 28002KT 32/20 A3011 RMK A01 T03220195  RH  047%=      5-min Rain = 0
KMC1 141642Z 29002KT 32/19 A3011 RMK A01 T03220194  RH  047%=      5-min Rain = 0
KMC1 141643Z 32002KT 32/20 A3011 RMK A01 T03220195  RH  047%=      5-min Rain = 0
KMC1 141644Z 27003KT 32/20 A3011 RMK A01 T03220195  RH  047%=      5-min Rain = 0
KMC1 141645Z 28001KT 32/19 A3011 RMK A01 T03220194  RH  047%=      5-min Rain = 0
KMC1 141646Z 28001KT 32/19 A3011 RMK A01 T03220194  RH  047%=      5-min Rain = 0
KMC1 141647Z 28001KT 32/19 A3011 RMK A01 T03220194  RH  047%=      5-min Rain = 0
KMC1 141648Z 28000KT 32/19 A3011 RMK A01 T03220194  RH  047%=      5-min Rain = 0
KMC1 141649Z 00000KT 32/19 A3011 RMK A01 T03220194  RH  047%=      5-min Rain = 0
KMC1 141650Z 31001KT 32/19 A3011 RMK A01 T03220194  RH  047%=      5-min Rain = 0
KMC1 141651Z 31002KT 32/20 A3011 RMK A01 T03220195  RH  047%=      5-min Rain = 0
KMC1 141652Z 31000KT 32/19 A3011 RMK A01 T03220194  RH  047%=      5-min Rain = 0
KMC1 141653Z 21000KT 32/19 A3011 RMK A01 T03220194  RH  047%=      5-min Rain = 0
KMC1 141654Z 19001KT 32/19 A3011 RMK A01 T03230194  RH  047%=      5-min Rain = 0
KMC1 141655Z 17000KT 32/19 A3011 RMK A01 T03230194  RH  047%=      5-min Rain = 0
KMC1 141656Z 06000KT 33/20 A3011 RMK A01 T03250195  RH  046%=      5-min Rain = 0
KMC1 141657Z 22000KT 33/20 A3011 RMK A01 T03270195  RH  046%=      5-min Rain = 0
KMC1 141658Z 33001KT 33/20 A3011 RMK A01 T03290195  RH  045%=      5-min Rain = 0
KMC1 141659Z 03003KT 33/20 A3011 RMK A01 T03310195  RH  045%=      5-min Rain = 0
KMC1 141700Z 04002KT 33/20 A3011 RMK A01 T03310195  RH  045%=      5-min Rain = 0
KMC1 141701Z 06002KT 33/20 A3011 RMK A01 T03300196  RH  045%=      5-min Rain = 0
KMC1 141702Z 04002KT 33/20 A3011 RMK A01 T03290195  RH  045%=      5-min Rain = 0
KMC1 141703Z 03003KT 33/20 A3011 RMK A01 T03290196  RH  046%=      5-min Rain = 0
KMC1 141704Z 00002KT 33/19 A3011 RMK A01 T03290194  RH  045%=      5-min Rain = 0
KMC1 141705Z 03003KT 33/20 A3011 RMK A01 T03290195  RH  045%=      5-min Rain = 0
KMC1 141706Z 03003KT 33/19 A3011 RMK A01 T03290194  RH  045%=      5-min Rain = 0
KMC1 141707Z 04003KT 33/19 A3011 RMK A01 T03280194  RH  045%=      5-min Rain = 0
KMC1 141708Z 04003KT 33/19 A3011 RMK A01 T03270194  RH  045%=      5-min Rain = 0
KMC1 141709Z 06002KT 33/19 A3011 RMK A01 T03280194  RH  045%=      5-min Rain = 0
KMC1 141710Z 08002KT 33/20 A3011 RMK A01 T03290196  RH  045%=      5-min Rain = 0
KMC1 141711Z 07001KT 33/20 A3011 RMK A01 T03320196  RH  045%=      5-min Rain = 0
KMC1 141712Z 08001KT 34/20 A3011 RMK A01 T03350196  RH  044%=      5-min Rain = 0
KMC1 141713Z 08001KT 34/20 A3011 RMK A01 T03360195  RH  044%=      5-min Rain = 0
KMC1 141714Z 10003KT 34/20 A3011 RMK A01 T03380196  RH  043%=      5-min Rain = 0
KMC1 141715Z 11003KT 34/20 A3011 RMK A01 T03390195  RH  043%=      5-min Rain = 0
KMC1 141716Z 12003KT 34/20 A3011 RMK A01 T03390196  RH  043%=      5-min Rain = 0
KMC1 141717Z 12003KT 34/19 A3011 RMK A01 T03370193  RH  043%=      5-min Rain = 0
KMC1 141718Z 11004KT 34/19 A3011 RMK A01 T03360194  RH  043%=      5-min Rain = 0
KMC1 141719Z 12002KT 33/19 A3011 RMK A01 T03340193  RH  044%=      5-min Rain = 0
KMC1 141720Z 08003KT 33/19 A3011 RMK A01 T03330194  RH  044%=      5-min Rain = 0
KMC1 141721Z 15002KT 33/19 A3011 RMK A01 T03330193  RH  044%=      5-min Rain = 0
KMC1 141722Z 07001KT 33/19 A3011 RMK A01 T03330194  RH  044%=      5-min Rain = 0
KMC1 141723Z 05003KT 34/20 A301 RMK A01 T03350195  RH  044%=      5-min Rain = 0
KMC1 141724Z 06002KT 34/19 A301 RMK A01 T03350194  RH  043%=      5-min Rain = 0
KMC1 141725Z 08002KT 34/19 A301 RMK A01 T03360194  RH  043%=      5-min Rain = 0
KMC1 141726Z 09004KT 34/19 A301 RMK A01 T03360194  RH  043%=      5-min Rain = 0
KMC1 141727Z 08003KT 34/19 A301 RMK A01 T03360193  RH  043%=      5-min Rain = 0
KMC1 141728Z 11003KT 34/19 A301 RMK A01 T03350191  RH  043%=      5-min Rain = 0
KMC1 141729Z 13002KT 33/19 A301 RMK A01 T03340188  RH  042%=      5-min Rain = 0
KMC1 141730Z 12003KT 33/19 A301 RMK A01 T03340188  RH  042%=      5-min Rain = 0
KMC1 141731Z 12002KT 33/19 A301 RMK A01 T03340187  RH  042%=      5-min Rain = 0
KMC1 141732Z 13001KT 33/19 A301 RMK A01 T03340189  RH  042%=      5-min Rain = 0
KMC1 141733Z 00000KT 34/19 A301 RMK A01 T03360191  RH  042%=      5-min Rain = 0
KMC1 141734Z 34002KT 34/19 A301 RMK A01 T03380191  RH  042%=      5-min Rain = 0
KMC1 141735Z 32004KT 34/19 A301 RMK A01 T03400189  RH  041%=      5-min Rain = 0
KMC1 141736Z 31004KT 34/19 A301 RMK A01 T03400189  RH  041%=      5-min Rain = 0
KMC1 141737Z 29004KT 34/19 A301 RMK A01 T03420190  RH  041%=      5-min Rain = 0
KMC1 141738Z 30005KT 34/19 A301 RMK A01 T03440190  RH  040%=      5-min Rain = 0
KMC1 141739Z 32005KT 35/19 A3009 RMK A01 T03460188  RH  039%=      5-min Rain = 0
KMC1 141740Z 28004KT 35/19 A3009 RMK A01 T03460189  RH  040%=      5-min Rain = 0
KMC1 141741Z 28005KT 35/19 A3009 RMK A01 T03460190  RH  040%=      5-min Rain = 0
KMC1 141742Z 29006KT 35/19 A3009 RMK A01 T03470190  RH  040%=      5-min Rain = 0
KMC1 141743Z 28005KT 35/19 A3009 RMK A01 T03500190  RH  039%=      5-min Rain = 0
KMC1 141744Z 26003KT 35/19 A3009 RMK A01 T03500189  RH  039%=      5-min Rain = 0
KMC1 141745Z 26003KT 35/19 A3009 RMK A01 T03480190  RH  040%=      5-min Rain = 0
KMC1 141746Z 25003KT 35/19 A3009 RMK A01 T03470190  RH  040%=      5-min Rain = 0
KMC1 141747Z 24004KT 35/19 A3009 RMK A01 T03450189  RH  040%=      5-min Rain = 0
KMC1 141748Z 24003KT 34/19 A301 RMK A01 T03420190  RH  041%=      5-min Rain = 0
KMC1 141749Z 26005KT 34/19 A301 RMK A01 T03420190  RH  041%=      5-min Rain = 0
KMC1 141750Z 30004KT 34/19 A301 RMK A01 T03430190  RH  041%=      5-min Rain = 0
KMC1 141751Z 32002KT 34/19 A301 RMK A01 T03410189  RH  041%=      5-min Rain = 0
KMC1 141752Z 05001KT 34/19 A301 RMK A01 T03390189  RH  041%=      5-min Rain = 0
KMC1 141753Z 07001KT 34/19 A301 RMK A01 T03390189  RH  041%=      5-min Rain = 0
KMC1 141754Z 28001KT 34/19 A301 RMK A01 T03400190  RH  041%=      5-min Rain = 0
KMC1 141755Z 26002KT 34/19 A301 RMK A01 T03400190  RH  041%=      5-min Rain = 0
KMC1 141756Z 22003KT 34/19 A301 RMK A01 T03400190  RH  041%=      5-min Rain = 0
KMC1 141757Z 21003KT 34/19 A301 RMK A01 T03400189  RH  041%=      5-min Rain = 0
KMC1 141758Z 21002KT 34/19 A301 RMK A01 T03380189  RH  041%=      5-min Rain = 0
KMC1 141759Z 25001KT 34/19 A3009 RMK A01 T03360188  RH  042%=      5-min Rain = 0
KMC1 141800Z 19000KT 34/19 A3009 RMK A01 T03360189  RH  042%=      5-min Rain = 0
KMC1 141801Z 33002KT 34/19 A3009 RMK A01 T03370189  RH  042%=      5-min Rain = 0
KMC1 141802Z 31003KT 34/19 A3009 RMK A01 T03390190  RH  042%=      5-min Rain = 0
KMC1 141803Z 28005KT 34/19 A3009 RMK A01 T03400190  RH  041%=      5-min Rain = 0
KMC1 141804Z 28005KT 34/19 A3009 RMK A01 T03420191  RH  041%=      5-min Rain = 0
KMC1 141805Z 28005KT 34/19 A3009 RMK A01 T03420191  RH  041%=      5-min Rain = 0
KMC1 141806Z 27003KT 34/19 A3009 RMK A01 T03420190  RH  041%=      5-min Rain = 0
KMC1 141807Z 27003KT 34/19 A3009 RMK A01 T03410191  RH  041%=      5-min Rain = 0
KMC1 141808Z 31003KT 34/19 A3009 RMK A01 T03410191  RH  041%=      5-min Rain = 0
KMC1 141809Z 31003KT 34/19 A3009 RMK A01 T03430191  RH  041%=      5-min Rain = 0
KMC1 141810Z 35003KT 34/19 A3009 RMK A01 T03430191  RH  041%=      5-min Rain = 0
KMC1 141811Z 03001KT 34/19 A3009 RMK A01 T03420190  RH  041%=      5-min Rain = 0
KMC1 141812Z 02001KT 34/19 A3009 RMK A01 T03400189  RH  041%=      5-min Rain = 0
KMC1 141813Z 01002KT 34/19 A3009 RMK A01 T03400190  RH  041%=      5-min Rain = 0
KMC1 141814Z 35004KT 34/19 A3009 RMK A01 T03390190  RH  041%=      5-min Rain = 0
KMC1 141815Z 33006KT 34/19 A3009 RMK A01 T03400191  RH  041%=      5-min Rain = 0
KMC1 141816Z 32004KT 34/19 A3009 RMK A01 T03410192  RH  041%=      5-min Rain = 0
KMC1 141817Z 32007G15KT 34/19 A3009 RMK A01 T03410192  RH  042%=      5-min Rain = 0
KMC1 141818Z 33012KT 34/19 A3009 RMK A01 T03390190  RH  041%=      5-min Rain = 0
KMC1 141819Z 33012KT 33/19 A3009 RMK A01 T03320192  RH  043%=      5-min Rain = 0
KMC1 141820Z 34011KT 33/20 A3009 RMK A01 T03300196  RH  045%=      5-min Rain = 0
KMC1 141821Z 35005KT 33/20 A3009 RMK A01 T03310197  RH  045%=      5-min Rain = 0
KMC1 141822Z 36008KT 33/20 A3009 RMK A01 T03300196  RH  045%=      5-min Rain = 0
KMC1 141823Z 34008G13KT 33/20 A3009 RMK A01 T03290198  RH  046%=      5-min Rain = 0
KMC1 141824Z 31007KT 33/20 A3008 RMK A01 T03300200  RH  047%=      5-min Rain = 0
KMC1 141825Z 32009G14KT 33/20 A3008 RMK A01 T03300201  RH  047%=      5-min Rain = 0
KMC1 141826Z 32009KT 32/20 A3008 RMK A01 T03240200  RH  048%=      5-min Rain = 0
KMC1 141827Z 32008KT 32/20 A3008 RMK A01 T03210200  RH  049%=      5-min Rain = 0
KMC1 141828Z 32007KT 32/20 A3008 RMK A01 T03210199  RH  048%=      5-min Rain = 0
KMC1 141829Z 32008KT 32/19 A3008 RMK A01 T03230193  RH  046%=      5-min Rain = 0
KMC1 141830Z 32007KT 32/19 A3008 RMK A01 T03230193  RH  046%=      5-min Rain = 0
KMC1 141831Z 32008KT 32/19 A3008 RMK A01 T03230189  RH  045%=      5-min Rain = 0
KMC1 141832Z 33008KT 32/19 A3008 RMK A01 T03210191  RH  046%=      5-min Rain = 0
KMC1 141833Z 33008KT 32/19 A3008 RMK A01 T03180194  RH  048%=      5-min Rain = 0
KMC1 141834Z 34007G12KT 31/20 A3008 RMK A01 T03140197  RH  050%=      5-min Rain = 0
KMC1 141835Z 34006KT 31/20 A3008 RMK A01 T03090199  RH  052%=      5-min Rain = 0
KMC1 141836Z 34008KT 31/20 A3008 RMK A01 T03080201  RH  053%=      5-min Rain = 0
KMC1 141837Z 34008KT 31/20 A3008 RMK A01 T03070203  RH  054%=      5-min Rain = 0
KMC1 141838Z 34007KT 31/21 A3008 RMK A01 T03050205  RH  055%=      5-min Rain = 0
KMC1 141839Z 35009KT 30/21 A3008 RMK A01 T03030207  RH  056%=      5-min Rain = 0
KMC1 141840Z 34009KT 30/21 A3008 RMK A01 T03020208  RH  057%=      5-min Rain = 0
KMC1 141841Z 34010KT 30/21 A3009 RMK A01 T03010209  RH  058%=      5-min Rain = 0
KMC1 141842Z 35010KT 30/21 A3009 RMK A01 T03030205  RH  056%=      5-min Rain = 0
KMC1 141843Z 34010KT 30/20 A3009 RMK A01 T03040203  RH  055%=      5-min Rain = 0
KMC1 141844Z 34010KT 30/20 A3008 RMK A01 T03040199  RH  054%=      5-min Rain = 0
KMC1 141845Z 33008KT 30/20 A3009 RMK A01 T03030201  RH  054%=      5-min Rain = 0
KMC1 141846Z 33008KT 30/19 A3009 RMK A01 T03030194  RH  052%=      5-min Rain = 0
KMC1 141847Z 33008KT 30/18 A3008 RMK A01 T03030183  RH  049%=      5-min Rain = 0
KMC1 141848Z 34007KT 30/17 A3008 RMK A01 T03040172  RH  045%=      5-min Rain = 0
KMC1 141849Z 33006KT 31/17 A3008 RMK A01 T03070172  RH  044%=      5-min Rain = 0
KMC1 141850Z 33006KT 31/17 A3008 RMK A01 T03090170  RH  043%=      5-min Rain = 0
KMC1 141851Z 32008KT 31/17 A3009 RMK A01 T03110172  RH  043%=      5-min Rain = 0
KMC1 141852Z 32008KT 31/17 A3009 RMK A01 T03120172  RH  043%=      5-min Rain = 0
KMC1 141853Z 32010KT 31/17 A3009 RMK A01 T03120172  RH  043%=      5-min Rain = 0
KMC1 141854Z 31010KT 31/17 A3009 RMK A01 T03120173  RH  043%=      5-min Rain = 0
KMC1 141855Z 30011G16KT 31/18 A301 RMK A01 T03120184  RH  047%=      5-min Rain = 0
KMC1 141856Z 31014KT 31/20 A301 RMK A01 T03060195  RH  051%=      5-min Rain = 0
KMC1 141857Z 31010KT 30/20 A301 RMK A01 T02970199  RH  056%=      5-min Rain = 0
KMC1 141858Z 32012KT 29/20 A301 RMK A01 T02910202  RH  059%=      5-min Rain = 0
KMC1 141859Z 32009KT 29/20 A301 RMK A01 T02850203  RH  061%=      5-min Rain = 0
KMC1 141900Z 33010KT 28/20 A301 RMK A01 T02810204  RH  063%=      5-min Rain = 0
KMC1 141901Z 33010KT 28/20 A3009 RMK A01 T02770203  RH  064%=      5-min Rain = 0
KMC1 141902Z 33008KT 28/20 A3009 RMK A01 T02750204  RH  065%=      5-min Rain = 0
KMC1 141903Z 32008KT 27/21 A3009 RMK A01 T02740205  RH  066%=      5-min Rain = 0
KMC1 141904Z 32008KT 27/21 A3009 RMK A01 T02730205  RH  066%=      5-min Rain = 0
KMC1 141905Z 32006G11KT 27/21 A3009 RMK A01 T02720206  RH  067%=      5-min Rain = 0
KMC1 141906Z 31006KT 27/21 A3009 RMK A01 T02710206  RH  067%=      5-min Rain = 0
KMC1 141907Z 31006KT 27/21 A3009 RMK A01 T02710205  RH  067%=      5-min Rain = 0
KMC1 141908Z 32008KT 27/21 A3008 RMK A01 T02710205  RH  067%=      5-min Rain = 0
KMC1 141909Z 31008KT 27/20 A3008 RMK A01 T02700204  RH  067%=      5-min Rain = 0
KMC1 141910Z 32005KT 27/20 A3008 RMK A01 T02690203  RH  067%=      5-min Rain = 0
KMC1 141911Z 31008KT 27/20 A3008 RMK A01 T02680202  RH  067%=      5-min Rain = 0
KMC1 141912Z 32010KT 27/20 A3008 RMK A01 T02680197  RH  065%=      5-min Rain = 0
KMC1 141913Z 30007KT 27/20 A3008 RMK A01 T02690196  RH  065%=      5-min Rain = 0
KMC1 141914Z 31005KT 27/20 A3008 RMK A01 T02700196  RH  064%=      5-min Rain = 0
KMC1 141915Z 31006KT 27/19 A3008 RMK A01 T02710194  RH  063%=      5-min Rain = 0
KMC1 141916Z 32009KT 27/19 A3008 RMK A01 T02730192  RH  061%=      5-min Rain = 0
KMC1 141917Z 32007G12KT 27/19 A3008 RMK A01 T02730190  RH  061%=      5-min Rain = 0
KMC1 141918Z 32008G13KT 27/19 A3008 RMK A01 T02730189  RH  060%=      5-min Rain = 0
KMC1 141919Z 32009KT 27/19 A3008 RMK A01 T02730188  RH  060%=      5-min Rain = 0
KMC1 141920Z 33010KT 27/19 A3008 RMK A01 T02730187  RH  059%=      5-min Rain = 0
KMC1 141921Z 34008KT 27/19 A3008 RMK A01 T02720187  RH  060%=      5-min Rain = 0
KMC1 141922Z 34006KT 27/19 A3008 RMK A01 T02710189  RH  061%=      5-min Rain = 0
KMC1 141923Z 35008KT 27/19 A3008 RMK A01 T02710190  RH  061%=      5-min Rain = 0
KMC1 141924Z 35007KT 27/19 A3008 RMK A01 T02720192  RH  062%=      5-min Rain = 0
KMC1 141925Z 34006KT 27/19 A3008 RMK A01 T02700192  RH  062%=      5-min Rain = 0
KMC1 141926Z 35005KT 27/19 A3008 RMK A01 T02680191  RH  063%=      5-min Rain = 0
KMC1 141927Z 35005KT 27/19 A3008 RMK A01 T02650190  RH  063%=      5-min Rain = 0
KMC1 141928Z 00006KT 26/19 A3008 RMK A01 T02640190  RH  064%=      5-min Rain = 0
KMC1 141929Z 00006KT 26/19 A3008 RMK A01 T02640191  RH  064%=      5-min Rain = 0
KMC1 141930Z 35007KT 26/19 A3008 RMK A01 T02630190  RH  064%=      5-min Rain = 0
KMC1 141931Z 35005KT 26/19 A3008 RMK A01 T02630189  RH  064%=      5-min Rain = 0
KMC1 141932Z 35006KT 26/19 A3008 RMK A01 T02630189  RH  064%=      5-min Rain = 0
KMC1 141933Z 35006KT 26/19 A3008 RMK A01 T02620190  RH  064%=      5-min Rain = 0
KMC1 141934Z 36007KT 26/19 A3008 RMK A01 T02620190  RH  065%=      5-min Rain = 0
KMC1 141935Z 35007KT 26/19 A3008 RMK A01 T02610187  RH  064%=      5-min Rain = 0
KMC1 141936Z 34007KT 26/19 A3007 RMK A01 T02600187  RH  064%=      5-min Rain = 0
KMC1 141937Z 32004KT 26/19 A3007 RMK A01 T02590188  RH  065%=      5-min Rain = 0
KMC1 141938Z 32005KT 26/19 A3007 RMK A01 T02590188  RH  065%=      5-min Rain = 0
KMC1 141939Z 32006KT 26/19 A3007 RMK A01 T02600188  RH  065%=      5-min Rain = 0
KMC1 141940Z 33005KT 26/19 A3007 RMK A01 T02590188  RH  065%=      5-min Rain = 0
KMC1 141941Z 32004KT 26/19 A3007 RMK A01 T02590189  RH  065%=      5-min Rain = 0
KMC1 141942Z 31003KT 26/19 A3007 RMK A01 T02590190  RH  066%=      5-min Rain = 0
KMC1 141943Z 31004KT 26/19 A3006 RMK A01 T02590190  RH  066%=      5-min Rain = 0
KMC1 141944Z 33006KT 26/19 A3006 RMK A01 T02590190  RH  066%=      5-min Rain = 0
KMC1 141945Z 32004KT 26/19 A3006 RMK A01 T02580191  RH  066%=      5-min Rain = 0
KMC1 141946Z 34005KT 26/19 A3006 RMK A01 T02560191  RH  067%=      5-min Rain = 0
KMC1 141947Z 36004KT 26/19 A3006 RMK A01 T02560191  RH  067%=      5-min Rain = 0
KMC1 141948Z 35005KT 26/19 A3007 RMK A01 T02570192  RH  067%=      5-min Rain = 0
KMC1 141949Z 35003KT 26/19 A3006 RMK A01 T02570192  RH  067%=      5-min Rain = 0
KMC1 141950Z 36002KT 26/19 A3006 RMK A01 T02570192  RH  067%=      5-min Rain = 0
KMC1 141951Z 35001KT 26/19 A3006 RMK A01 T02580193  RH  067%=      5-min Rain = 0
KMC1 141952Z 34003KT 26/19 A3006 RMK A01 T02580193  RH  067%=      5-min Rain = 0
KMC1 141953Z 35004KT 26/19 A3006 RMK A01 T02580193  RH  067%=      5-min Rain = 0
KMC1 141954Z 01004KT 26/19 A3006 RMK A01 T02580193  RH  067%=      5-min Rain = 0
KMC1 141955Z 02005KT 26/19 A3006 RMK A01 T02580193  RH  067%=      5-min Rain = 0
KMC1 141956Z 02005KT 26/19 A3006 RMK A01 T02590194  RH  067%=      5-min Rain = 0
KMC1 141957Z 03004KT 26/19 A3006 RMK A01 T02600194  RH  067%=      5-min Rain = 0
KMC1 141958Z 02005KT 26/19 A3006 RMK A01 T02600194  RH  067%=      5-min Rain = 0
KMC1 141959Z 01006KT 26/19 A3006 RMK A01 T02610194  RH  067%=      5-min Rain = 0
KMC1 142000Z 02005KT 26/19 A3006 RMK A01 T02610194  RH  067%=      5-min Rain = 0
KMC1 142001Z 02004KT 26/19 A3006 RMK A01 T02600194  RH  067%=      5-min Rain = 0
KMC1 142002Z 01004KT 26/20 A3006 RMK A01 T02600196  RH  068%=      5-min Rain = 0
KMC1 142003Z 03004KT 26/20 A3006 RMK A01 T02600197  RH  068%=      5-min Rain = 0
KMC1 142004Z 02006KT 26/19 A3006 RMK A01 T02600194  RH  067%=      5-min Rain = 0
KMC1 142005Z 02006KT 26/19 A3006 RMK A01 T02600192  RH  066%=      5-min Rain = 0
KMC1 142006Z 02005KT 26/19 A3006 RMK A01 T02600192  RH  066%=      5-min Rain = 0
KMC1 142007Z 04004KT 26/20 A3006 RMK A01 T02600195  RH  067%=      5-min Rain = 0
KMC1 142008Z 03003KT 26/20 A3006 RMK A01 T02600195  RH  068%=      5-min Rain = 0
KMC1 142009Z 02003KT 26/20 A3006 RMK A01 T02600196  RH  068%=      5-min Rain = 0
KMC1 142010Z 02003KT 26/20 A3006 RMK A01 T02600195  RH  067%=      5-min Rain = 0
KMC1 142011Z 01003KT 26/20 A3006 RMK A01 T02600195  RH  068%=      5-min Rain = 0
KMC1 142012Z 00003KT 26/20 A3006 RMK A01 T02600197  RH  068%=      5-min Rain = 0
KMC1 142013Z 36004KT 26/20 A3006 RMK A01 T02600198  RH  069%=      5-min Rain = 0
KMC1 142014Z 01003KT 26/20 A3006 RMK A01 T02590199  RH  069%=      5-min Rain = 0
KMC1 142015Z 36003KT 26/20 A3006 RMK A01 T02590202  RH  071%=      5-min Rain = 0
KMC1 142016Z 36003KT 26/20 A3006 RMK A01 T02580202  RH  071%=      5-min Rain = 0
KMC1 142017Z 01002KT 26/20 A3005 RMK A01 T02570204  RH  073%=      5-min Rain = 0
KMC1 142018Z 02002KT 26/21 A3005 RMK A01 T02560206  RH  074%=      5-min Rain = 0
KMC1 142019Z 02002KT 26/20 A3005 RMK A01 T02560198  RH  070%=      5-min Rain = 0
KMC1 142020Z 01002KT 26/20 A3005 RMK A01 T02550201  RH  072%=      5-min Rain = 0
KMC1 142021Z 01002KT 25/20 A3005 RMK A01 T02540197  RH  071%=      5-min Rain = 0
KMC1 142022Z 00002KT 25/20 A3005 RMK A01 T02530200  RH  072%=      5-min Rain = 0
KMC1 142023Z 01002KT 25/20 A3005 RMK A01 T02530201  RH  073%=      5-min Rain = 0
KMC1 142024Z 02003KT 25/20 A3005 RMK A01 T02530200  RH  072%=      5-min Rain = 0
KMC1 142025Z 36002KT 25/20 A3005 RMK A01 T02530200  RH  072%=      5-min Rain = 0
KMC1 142026Z 35003KT 25/20 A3005 RMK A01 T02530201  RH  073%=      5-min Rain = 0
KMC1 142027Z 35003KT 25/20 A3005 RMK A01 T02530203  RH  074%=      5-min Rain = 0
KMC1 142028Z 35002KT 25/20 A3005 RMK A01 T02530204  RH  074%=      5-min Rain = 0
KMC1 142029Z 33002KT 25/21 A3005 RMK A01 T02530209  RH  076%=      5-min Rain = 0
KMC1 142030Z 36002KT 25/20 A3005 RMK A01 T02530203  RH  074%=      5-min Rain = 0
KMC1 142031Z 00000KT 25/20 A3005 RMK A01 T02530203  RH  074%=      5-min Rain = 0
KMC1 142032Z 03000KT 25/20 A3005 RMK A01 T02530202  RH  073%=      5-min Rain = 0
KMC1 142033Z 05001KT 25/20 A3005 RMK A01 T02530203  RH  074%=      5-min Rain = 0
KMC1 142034Z 05002KT 25/20 A3005 RMK A01 T02540199  RH  072%=      5-min Rain = 0
KMC1 142035Z 05001KT 25/20 A3005 RMK A01 T02540204  RH  074%=      5-min Rain = 0
KMC1 142036Z 06002KT 25/20 A3006 RMK A01 T02540201  RH  072%=      5-min Rain = 0
KMC1 142037Z 08001KT 26/21 A3006 RMK A01 T02550207  RH  075%=      5-min Rain = 0
KMC1 142038Z 09003KT 26/21 A3006 RMK A01 T02550212  RH  077%=      5-min Rain = 0
KMC1 142039Z 08003KT 26/21 A3006 RMK A01 T02560210  RH  076%=      5-min Rain = 0
KMC1 142040Z 08003KT 26/21 A3006 RMK A01 T02560210  RH  076%=      5-min Rain = 0
KMC1 142041Z 07003KT 26/21 A3006 RMK A01 T02560212  RH  076%=      5-min Rain = 0
KMC1 142042Z 07003KT 26/21 A3006 RMK A01 T02570209  RH  075%=      5-min Rain = 0
KMC1 142043Z 07003KT 26/21 A3006 RMK A01 T02570211  RH  076%=      5-min Rain = 0
KMC1 142044Z 07002KT 26/21 A3006 RMK A01 T02580210  RH  075%=      5-min Rain = 0
KMC1 142045Z 08003KT 26/21 A3006 RMK A01 T02580210  RH  074%=      5-min Rain = 0
KMC1 142046Z 08002KT 26/21 A3006 RMK A01 T02590211  RH  075%=      5-min Rain = 0
KMC1 142047Z 08002KT 26/21 A3006 RMK A01 T02600211  RH  075%=      5-min Rain = 0
KMC1 142048Z 08002KT 26/21 A3006 RMK A01 T02600211  RH  074%=      5-min Rain = 0
KMC1 142049Z 09004KT 26/21 A3006 RMK A01 T02610211  RH  074%=      5-min Rain = 0
KMC1 142050Z 11004KT 26/21 A3006 RMK A01 T02610209  RH  073%=      5-min Rain = 0
KMC1 142051Z 12004KT 26/21 A3006 RMK A01 T02620208  RH  072%=      5-min Rain = 0
KMC1 142052Z 13004KT 26/21 A3006 RMK A01 T02630207  RH  071%=      5-min Rain = 0
KMC1 142053Z 14004KT 26/21 A3006 RMK A01 T02640208  RH  071%=      5-min Rain = 0
KMC1 142054Z 14005KT 27/21 A3006 RMK A01 T02650208  RH  071%=      5-min Rain = 0
KMC1 142055Z 14003KT 27/21 A3006 RMK A01 T02660208  RH  070%=      5-min Rain = 0
KMC1 142056Z 14003KT 27/21 A3006 RMK A01 T02670208  RH  070%=      5-min Rain = 0
KMC1 142057Z 13002KT 27/21 A3006 RMK A01 T02670208  RH  070%=      5-min Rain = 0
KMC1 142058Z 12003KT 27/21 A3006 RMK A01 T02680207  RH  069%=      5-min Rain = 0
KMC1 142059Z 11002KT 27/21 A3006 RMK A01 T02680207  RH  069%=      5-min Rain = 0
KMC1 142100Z 07002KT 27/21 A3006 RMK A01 T02690209  RH  070%=      5-min Rain = 0
KMC1 142101Z 05003KT 27/21 A3006 RMK A01 T02690213  RH  072%=      5-min Rain = 0
KMC1 142102Z 04004KT 27/21 A3006 RMK A01 T02690214  RH  072%=      5-min Rain = 0
KMC1 142103Z 03005KT 27/22 A3006 RMK A01 T02690215  RH  073%=      5-min Rain = 0
KMC1 142104Z 02004KT 27/22 A3006 RMK A01 T02680216  RH  073%=      5-min Rain = 0
KMC1 142105Z 02004KT 27/22 A3006 RMK A01 T02680217  RH  074%=      5-min Rain = 0
KMC1 142106Z 02003KT 27/22 A3006 RMK A01 T02670219  RH  075%=      5-min Rain = 0
KMC1 142107Z 02001KT 27/22 A3006 RMK A01 T02670219  RH  075%=      5-min Rain = 0
KMC1 142108Z 07000KT 27/22 A3006 RMK A01 T02660220  RH  076%=      5-min Rain = 0
KMC1 142109Z 13001KT 27/22 A3006 RMK A01 T02660218  RH  075%=      5-min Rain = 0
KMC1 142110Z 14002KT 27/22 A3006 RMK A01 T02660220  RH  076%=      5-min Rain = 0
KMC1 142111Z 15002KT 27/21 A3006 RMK A01 T02660214  RH  073%=      5-min Rain = 0
KMC1 142112Z 15002KT 27/21 A3006 RMK A01 T02660212  RH  072%=      5-min Rain = 0
KMC1 142113Z 16002KT 27/22 A3006 RMK A01 T02670217  RH  074%=      5-min Rain = 0
KMC1 142114Z 16002KT 27/22 A3005 RMK A01 T02670221  RH  076%=      5-min Rain = 0
KMC1 142115Z 16002KT 27/22 A3005 RMK A01 T02680219  RH  075%=      5-min Rain = 0
KMC1 142116Z 13001KT 27/21 A3005 RMK A01 T02680213  RH  072%=      5-min Rain = 0
KMC1 142117Z 10001KT 27/22 A3005 RMK A01 T02690217  RH  073%=      5-min Rain = 0
KMC1 142118Z 09002KT 27/21 A3005 RMK A01 T02700213  RH  071%=      5-min Rain = 0
KMC1 142119Z 08002KT 27/21 A3005 RMK A01 T02700214  RH  072%=      5-min Rain = 0
KMC1 142120Z 07002KT 27/22 A3005 RMK A01 T02710217  RH  072%=      5-min Rain = 0
KMC1 142121Z 08002KT 27/22 A3005 RMK A01 T02710219  RH  073%=      5-min Rain = 0
KMC1 142122Z 08001KT 27/22 A3005 RMK A01 T02720218  RH  072%=      5-min Rain = 0
KMC1 142123Z 11001KT 27/21 A3005 RMK A01 T02730213  RH  070%=      5-min Rain = 0
KMC1 142124Z 14000KT 27/22 A3005 RMK A01 T02730216  RH  071%=      5-min Rain = 0
KMC1 142125Z 18001KT 27/21 A3005 RMK A01 T02740210  RH  068%=      5-min Rain = 0
KMC1 142126Z 19002KT 28/21 A3005 RMK A01 T02750214  RH  069%=      5-min Rain = 0
KMC1 142127Z 20003KT 28/21 A3005 RMK A01 T02760210  RH  067%=      5-min Rain = 0
KMC1 142128Z 20004KT 28/21 A3005 RMK A01 T02770211  RH  067%=      5-min Rain = 0
KMC1 142129Z 19003KT 28/21 A3005 RMK A01 T02770213  RH  068%=      5-min Rain = 0
KMC1 142130Z 19003KT 28/21 A3005 RMK A01 T02780213  RH  068%=      5-min Rain = 0
KMC1 142131Z 17003KT 28/21 A3005 RMK A01 T02790208  RH  065%=      5-min Rain = 0
KMC1 142132Z 16002KT 28/21 A3005 RMK A01 T02790207  RH  065%=      5-min Rain = 0
KMC1 142133Z 16001KT 28/21 A3005 RMK A01 T02800208  RH  065%=      5-min Rain = 0
KMC1 142134Z 15000KT 28/21 A3005 RMK A01 T02810210  RH  065%=      5-min Rain = 0
KMC1 142135Z 12001KT 28/20 A3005 RMK A01 T02820202  RH  062%=      5-min Rain = 0
KMC1 142136Z 13000KT 28/21 A3005 RMK A01 T02830205  RH  063%=      5-min Rain = 0
KMC1 142137Z 15000KT 28/21 A3004 RMK A01 T02840206  RH  063%=      5-min Rain = 0
KMC1 142138Z 14001KT 29/21 A3004 RMK A01 T02850206  RH  062%=      5-min Rain = 0
KMC1 142139Z 15002KT 29/20 A3004 RMK A01 T02860200  RH  060%=      5-min Rain = 0
KMC1 142140Z 17003KT 29/20 A3004 RMK A01 T02860202  RH  060%=      5-min Rain = 0
KMC1 142141Z 16003KT 29/20 A3004 RMK A01 T02870201  RH  060%=      5-min Rain = 0
KMC1 142142Z 17003KT 29/21 A3004 RMK A01 T02880205  RH  061%=      5-min Rain = 0
KMC1 142143Z 16004KT 29/21 A3004 RMK A01 T02880205  RH  061%=      5-min Rain = 0
KMC1 142144Z 15003KT 29/21 A3004 RMK A01 T02890205  RH  061%=      5-min Rain = 0
KMC1 142145Z 14005KT 29/20 A3004 RMK A01 T02890204  RH  060%=      5-min Rain = 0
KMC1 142146Z 15004KT 29/20 A3004 RMK A01 T02900202  RH  059%=      5-min Rain = 0
KMC1 142147Z 14006KT 29/20 A3004 RMK A01 T02900200  RH  058%=      5-min Rain = 0
KMC1 142148Z 13005KT 29/20 A3004 RMK A01 T02910198  RH  057%=      5-min Rain = 0
KMC1 142149Z 13006KT 29/20 A3004 RMK A01 T02920196  RH  056%=      5-min Rain = 0
KMC1 142150Z 14003KT 29/20 A3004 RMK A01 T02930196  RH  056%=      5-min Rain = 0
KMC1 142151Z 15004KT 29/20 A3004 RMK A01 T02930197  RH  056%=      5-min Rain = 0
KMC1 142152Z 15004KT 29/20 A3004 RMK A01 T02940197  RH  056%=      5-min Rain = 0
KMC1 142153Z 16003KT 29/20 A3004 RMK A01 T02940199  RH  057%=      5-min Rain = 0
KMC1 142154Z 16004KT 30/20 A3004 RMK A01 T02950198  RH  056%=      5-min Rain = 0
KMC1 142155Z 17003KT 30/20 A3004 RMK A01 T02950198  RH  056%=      5-min Rain = 0
KMC1 142156Z 18005KT 30/20 A3004 RMK A01 T02950199  RH  056%=      5-min Rain = 0
KMC1 142157Z 19005KT 30/19 A3004 RMK A01 T02960194  RH  054%=      5-min Rain = 0
KMC1 142158Z 18003KT 30/20 A3004 RMK A01 T02950196  RH  055%=      5-min Rain = 0
KMC1 142159Z 18004KT 30/20 A3004 RMK A01 T02950195  RH  055%=      5-min Rain = 0
KMC1 142200Z 17005KT 30/20 A3004 RMK A01 T02960196  RH  055%=      5-min Rain = 0
KMC1 142201Z 17005KT 30/19 A3004 RMK A01 T02960194  RH  054%=      5-min Rain = 0
KMC1 142202Z 16004KT 30/20 A3004 RMK A01 T02960195  RH  055%=      5-min Rain = 0
KMC1 142203Z 17006KT 30/20 A3004 RMK A01 T02960195  RH  055%=      5-min Rain = 0
KMC1 142204Z 18005KT 30/20 A3004 RMK A01 T02960195  RH  055%=      5-min Rain = 0
KMC1 142205Z 17006KT 30/20 A3004 RMK A01 T02950195  RH  055%=      5-min Rain = 0
KMC1 142206Z 17004KT 30/19 A3004 RMK A01 T02950194  RH  055%=      5-min Rain = 0
KMC1 142207Z 17005KT 30/19 A3004 RMK A01 T02950194  RH  055%=      5-min Rain = 0
KMC1 142208Z 16004KT 29/19 A3004 RMK A01 T02940192  RH  054%=      5-min Rain = 0
KMC1 142209Z 17005KT 29/19 A3004 RMK A01 T02940191  RH  054%=      5-min Rain = 0
KMC1 142210Z 17003KT 29/19 A3004 RMK A01 T02940192  RH  054%=      5-min Rain = 0
KMC1 142211Z 16003KT 29/19 A3004 RMK A01 T02940193  RH  055%=      5-min Rain = 0
KMC1 142212Z 15003KT 29/19 A3004 RMK A01 T02940191  RH  054%=      5-min Rain = 0
KMC1 142213Z 16005KT 29/19 A3004 RMK A01 T02940191  RH  054%=      5-min Rain = 0
KMC1 142214Z 17004KT 29/19 A3004 RMK A01 T02940191  RH  054%=      5-min Rain = 0
KMC1 142215Z 17005KT 29/19 A3004 RMK A01 T02940190  RH  054%=      5-min Rain = 0
KMC1 142216Z 17005KT 29/19 A3003 RMK A01 T02940192  RH  054%=      5-min Rain = 0
KMC1 142217Z 18004KT 29/19 A3003 RMK A01 T02940192  RH  054%=      5-min Rain = 0
KMC1 142218Z 20003KT 29/19 A3003 RMK A01 T02940194  RH  055%=      5-min Rain = 0
KMC1 142219Z 21003KT 29/19 A3003 RMK A01 T02940193  RH  054%=      5-min Rain = 0
KMC1 142220Z 20004KT 29/19 A3003 RMK A01 T02940194  RH  055%=      5-min Rain = 0
KMC1 142221Z 21003KT 29/19 A3003 RMK A01 T02940193  RH  054%=      5-min Rain = 0
KMC1 142222Z 20003KT 29/19 A3003 RMK A01 T02940194  RH  055%=      5-min Rain = 0
KMC1 142223Z 21003KT 29/20 A3003 RMK A01 T02940195  RH  055%=      5-min Rain = 0
KMC1 142224Z 20004KT 29/19 A3003 RMK A01 T02940194  RH  055%=      5-min Rain = 0
KMC1 142225Z 21003KT 29/19 A3003 RMK A01 T02940194  RH  055%=      5-min Rain = 0
KMC1 142226Z 19003KT 30/20 A3003 RMK A01 T02950196  RH  055%=      5-min Rain = 0
KMC1 142227Z 18003KT 30/20 A3003 RMK A01 T02950195  RH  055%=      5-min Rain = 0
KMC1 142228Z 19004KT 30/19 A3003 RMK A01 T02950194  RH  054%=      5-min Rain = 0
KMC1 142229Z 18004KT 30/19 A3003 RMK A01 T02950194  RH  055%=      5-min Rain = 0
KMC1 142230Z 17003KT 30/19 A3003 RMK A01 T02950193  RH  054%=      5-min Rain = 0
KMC1 142231Z 17003KT 30/19 A3003 RMK A01 T02950194  RH  055%=      5-min Rain = 0
KMC1 142232Z 18003KT 30/19 A3003 RMK A01 T02950194  RH  055%=      5-min Rain = 0
KMC1 142233Z 20004KT 30/20 A3003 RMK A01 T02950195  RH  055%=      5-min Rain = 0
KMC1 142234Z 19006KT 30/19 A3004 RMK A01 T02950193  RH  054%=      5-min Rain = 0
KMC1 142235Z 20005KT 30/19 A3004 RMK A01 T02950192  RH  054%=      5-min Rain = 0
KMC1 142236Z 20005KT 29/19 A3004 RMK A01 T02940193  RH  054%=      5-min Rain = 0
KMC1 142237Z 19004KT 29/19 A3004 RMK A01 T02940192  RH  054%=      5-min Rain = 0
KMC1 142238Z 20004KT 29/19 A3004 RMK A01 T02940193  RH  055%=      5-min Rain = 0
KMC1 142239Z 19004KT 29/19 A3004 RMK A01 T02930194  RH  055%=      5-min Rain = 0
KMC1 142240Z 18006KT 29/19 A3004 RMK A01 T02930192  RH  055%=      5-min Rain = 0
KMC1 142241Z 19004KT 29/19 A3004 RMK A01 T02940192  RH  054%=      5-min Rain = 0
KMC1 142242Z 19005KT 29/19 A3004 RMK A01 T02930190  RH  054%=      5-min Rain = 0
KMC1 142243Z 18007KT 29/19 A3004 RMK A01 T02930190  RH  054%=      5-min Rain = 0
KMC1 142244Z 18006KT 29/19 A3004 RMK A01 T02920189  RH  054%=      5-min Rain = 0
KMC1 142245Z 18007KT 29/19 A3004 RMK A01 T02920188  RH  054%=      5-min Rain = 0
KMC1 142246Z 18006KT 29/19 A3004 RMK A01 T02920189  RH  054%=      5-min Rain = 0
KMC1 142247Z 18007KT 29/19 A3004 RMK A01 T02920188  RH  054%=      5-min Rain = 0
KMC1 142248Z 18006KT 29/19 A3004 RMK A01 T02920188  RH  054%=      5-min Rain = 0
KMC1 142249Z 18004KT 29/19 A3004 RMK A01 T02920189  RH  054%=      5-min Rain = 0
KMC1 142250Z 18004KT 29/19 A3004 RMK A01 T02910189  RH  054%=      5-min Rain = 0
KMC1 142251Z 17005KT 29/19 A3004 RMK A01 T02920189  RH  054%=      5-min Rain = 0
KMC1 142252Z 16006KT 29/19 A3004 RMK A01 T02920189  RH  054%=      5-min Rain = 0
KMC1 142253Z 17007KT 29/19 A3004 RMK A01 T02910187  RH  053%=      5-min Rain = 0
KMC1 142254Z 16006KT 29/19 A3004 RMK A01 T02910188  RH  054%=      5-min Rain = 0
KMC1 142255Z 16008KT 29/19 A3004 RMK A01 T02910187  RH  054%=      5-min Rain = 0
KMC1 142256Z 17005KT 29/19 A3004 RMK A01 T02900187  RH  054%=      5-min Rain = 0
KMC1 142257Z 17007KT 29/19 A3004 RMK A01 T02900187  RH  054%=      5-min Rain = 0
KMC1 142258Z 17007KT 29/19 A3004 RMK A01 T02890186  RH  054%=      5-min Rain = 0
KMC1 142259Z 17007KT 29/19 A3004 RMK A01 T02890187  RH  054%=      5-min Rain = 0
KMC1 142300Z 17006KT 29/19 A3004 RMK A01 T02880188  RH  055%=      5-min Rain = 0
KMC1 142301Z 16006KT 29/19 A3004 RMK A01 T02880188  RH  055%=      5-min Rain = 0
KMC1 142302Z 17005KT 29/19 A3004 RMK A01 T02880188  RH  055%=      5-min Rain = 0
KMC1 142303Z 17006KT 29/19 A3004 RMK A01 T02880189  RH  055%=      5-min Rain = 0
KMC1 142304Z 17005KT 29/19 A3004 RMK A01 T02880189  RH  055%=      5-min Rain = 0
KMC1 142305Z 16004KT 29/19 A3004 RMK A01 T02870190  RH  055%=      5-min Rain = 0
KMC1 142306Z 16005KT 29/19 A3004 RMK A01 T02870190  RH  056%=      5-min Rain = 0
KMC1 142307Z 17005KT 29/19 A3004 RMK A01 T02870190  RH  056%=      5-min Rain = 0
KMC1 142308Z 16006KT 29/19 A3004 RMK A01 T02870190  RH  056%=      5-min Rain = 0
KMC1 142309Z 18006KT 29/19 A3004 RMK A01 T02870191  RH  056%=      5-min Rain = 0
KMC1 142310Z 17006KT 29/19 A3004 RMK A01 T02870190  RH  056%=      5-min Rain = 0
KMC1 142311Z 17005KT 29/19 A3004 RMK A01 T02870191  RH  056%=      5-min Rain = 0
KMC1 142312Z 16005KT 29/19 A3004 RMK A01 T02870192  RH  056%=      5-min Rain = 0
KMC1 142313Z 17004KT 29/19 A3004 RMK A01 T02870192  RH  056%=      5-min Rain = 0
KMC1 142314Z 17006KT 29/19 A3004 RMK A01 T02880192  RH  056%=      5-min Rain = 0
KMC1 142315Z 18006KT 29/19 A3004 RMK A01 T02880192  RH  056%=      5-min Rain = 0
KMC1 142316Z 19004KT 29/19 A3004 RMK A01 T02880192  RH  056%=      5-min Rain = 0
KMC1 142317Z 18004KT 29/19 A3004 RMK A01 T02880192  RH  056%=      5-min Rain = 0
KMC1 142318Z 17002KT 29/19 A3004 RMK A01 T02870192  RH  056%=      5-min Rain = 0
KMC1 142319Z 19003KT 29/19 A3004 RMK A01 T02870192  RH  056%=      5-min Rain = 0
KMC1 142320Z 18003KT 29/19 A3004 RMK A01 T02880192  RH  056%=      5-min Rain = 0
KMC1 142321Z 19003KT 29/19 A3004 RMK A01 T02880193  RH  056%=      5-min Rain = 0
KMC1 142322Z 19005KT 29/19 A3004 RMK A01 T02890192  RH  056%=      5-min Rain = 0
KMC1 142323Z 19003KT 29/19 A3004 RMK A01 T02890192  RH  056%=      5-min Rain = 0
KMC1 142324Z 18003KT 29/19 A3004 RMK A01 T02900194  RH  056%=      5-min Rain = 0
KMC1 142325Z 17004KT 29/19 A3004 RMK A01 T02910193  RH  056%=      5-min Rain = 0
KMC1 142326Z 16004KT 29/19 A3004 RMK A01 T02920193  RH  055%=      5-min Rain = 0
KMC1 142327Z 16004KT 29/19 A3004 RMK A01 T02920194  RH  056%=      5-min Rain = 0
KMC1 142328Z 19002KT 29/19 A3004 RMK A01 T02910194  RH  056%=      5-min Rain = 0
KMC1 142329Z 17002KT 29/20 A3004 RMK A01 T02910195  RH  056%=      5-min Rain = 0
KMC1 142330Z 17003KT 29/19 A3004 RMK A01 T02910194  RH  056%=      5-min Rain = 0
KMC1 142331Z 18002KT 29/19 A3004 RMK A01 T02910194  RH  056%=      5-min Rain = 0
KMC1 142332Z 19003KT 29/19 A3004 RMK A01 T02910194  RH  056%=      5-min Rain = 0
KMC1 142333Z 18004KT 29/19 A3004 RMK A01 T02910194  RH  056%=      5-min Rain = 0
KMC1 142334Z 17004KT 29/19 A3004 RMK A01 T02910194  RH  056%=      5-min Rain = 0
KMC1 142335Z 18003KT 29/19 A3004 RMK A01 T02890194  RH  056%=      5-min Rain = 0
KMC1 142336Z 18004KT 29/19 A3004 RMK A01 T02890193  RH  056%=      5-min Rain = 0
KMC1 142337Z 18004KT 29/19 A3003 RMK A01 T02880193  RH  056%=      5-min Rain = 0
KMC1 142338Z 19004KT 29/19 A3003 RMK A01 T02880193  RH  056%=      5-min Rain = 0
KMC1 142339Z 18005KT 29/19 A3003 RMK A01 T02880192  RH  056%=      5-min Rain = 0
KMC1 142340Z 18006KT 29/19 A3003 RMK A01 T02870192  RH  056%=      5-min Rain = 0
KMC1 142341Z 19006KT 29/19 A3004 RMK A01 T02870192  RH  057%=      5-min Rain = 0
KMC1 142342Z 19004KT 29/19 A3004 RMK A01 T02860192  RH  057%=      5-min Rain = 0
KMC1 142343Z 19003KT 29/19 A3003 RMK A01 T02860192  RH  057%=      5-min Rain = 0
KMC1 142344Z 20003KT 29/19 A3003 RMK A01 T02860192  RH  057%=      5-min Rain = 0
KMC1 142345Z 19004KT 29/19 A3003 RMK A01 T02860192  RH  057%=      5-min Rain = 0
KMC1 142346Z 21004KT 29/19 A3004 RMK A01 T02860192  RH  057%=      5-min Rain = 0
KMC1 142347Z 20005KT 29/19 A3004 RMK A01 T02850192  RH  057%=      5-min Rain = 0
KMC1 142348Z 21005KT 29/19 A3004 RMK A01 T02850192  RH  057%=      5-min Rain = 0
KMC1 142349Z 20003KT 28/19 A3004 RMK A01 T02840192  RH  057%=      5-min Rain = 0
KMC1 142350Z 19006KT 28/19 A3004 RMK A01 T02830191  RH  057%=      5-min Rain = 0
KMC1 142351Z 20005KT 28/19 A3003 RMK A01 T02830190  RH  057%=      5-min Rain = 0
KMC1 142352Z 20005KT 28/19 A3003 RMK A01 T02820190  RH  057%=      5-min Rain = 0
KMC1 142353Z 20003KT 28/19 A3003 RMK A01 T02820190  RH  058%=      5-min Rain = 0
KMC1 142354Z 20005KT 28/19 A3003 RMK A01 T02810190  RH  058%=      5-min Rain = 0
KMC1 142355Z 20005KT 28/19 A3003 RMK A01 T02820190  RH  058%=      5-min Rain = 0
KMC1 142356Z 20004KT 28/19 A3003 RMK A01 T02810189  RH  057%=      5-min Rain = 0
KMC1 142357Z 18004KT 28/19 A3003 RMK A01 T02810188  RH  057%=      5-min Rain = 0
KMC1 142358Z 19003KT 28/19 A3003 RMK A01 T02810188  RH  057%=      5-min Rain = 0
KMC1 142359Z 19004KT 28/19 A3003 RMK A01 T02810187  RH  057%=      5-min Rain = 0
KMC1 150000Z 18004KT 28/19 A3003 RMK A01 T02810187  RH  057%=      5-min Rain = 0
KMC1 150001Z 20005KT 28/19 A3003 RMK A01 T02820188  RH  057%=      5-min Rain = 0
KMC1 150002Z 19005KT 28/19 A3003 RMK A01 T02810187  RH  057%=      5-min Rain = 0
KMC1 150003Z 20003KT 28/19 A3003 RMK A01 T02810187  RH  057%=      5-min Rain = 0
KMC1 150004Z 18004KT 28/19 A3003 RMK A01 T02810186  RH  056%=      5-min Rain = 0
KMC1 150005Z 20003KT 28/19 A3003 RMK A01 T02800186  RH  056%=      5-min Rain = 0
KMC1 150006Z 20002KT 28/19 A3003 RMK A01 T02810187  RH  057%=      5-min Rain = 0
KMC1 150007Z 20002KT 28/19 A3003 RMK A01 T02810187  RH  057%=      5-min Rain = 0
KMC1 150008Z 18003KT 28/19 A3003 RMK A01 T02810188  RH  057%=      5-min Rain = 0
KMC1 150009Z 18003KT 28/19 A3003 RMK A01 T02810187  RH  057%=      5-min Rain = 0
KMC1 150010Z 17003KT 28/19 A3003 RMK A01 T02820189  RH  057%=      5-min Rain = 0
KMC1 150011Z 19003KT 28/19 A3003 RMK A01 T02810188  RH  057%=      5-min Rain = 0
KMC1 150012Z 19003KT 28/19 A3003 RMK A01 T02810187  RH  057%=      5-min Rain = 0
KMC1 150013Z 18002KT 28/19 A3003 RMK A01 T02810187  RH  057%=      5-min Rain = 0
KMC1 150014Z 17002KT 28/19 A3003 RMK A01 T02810187  RH  057%=      5-min Rain = 0
KMC1 150015Z 17002KT 28/19 A3003 RMK A01 T02810187  RH  057%=      5-min Rain = 0
KMC1 150016Z 15001KT 28/19 A3003 RMK A01 T02820188  RH  057%=      5-min Rain = 0
KMC1 150017Z 16002KT 28/19 A3003 RMK A01 T02820188  RH  057%=      5-min Rain = 0
KMC1 150018Z 15003KT 28/19 A3003 RMK A01 T02820188  RH  057%=      5-min Rain = 0
KMC1 150019Z 16003KT 28/19 A3003 RMK A01 T02820187  RH  056%=      5-min Rain = 0
KMC1 150020Z 16002KT 28/19 A3003 RMK A01 T02820188  RH  057%=      5-min Rain = 0
KMC1 150021Z 15001KT 28/19 A3003 RMK A01 T02810188  RH  057%=      5-min Rain = 0
KMC1 150022Z 16004KT 28/19 A3003 RMK A01 T02810187  RH  056%=      5-min Rain = 0
KMC1 150023Z 16004KT 28/19 A3003 RMK A01 T02810185  RH  056%=      5-min Rain = 0
KMC1 150024Z 17004KT 28/19 A3003 RMK A01 T02810185  RH  056%=      5-min Rain = 0
KMC1 150025Z 16003KT 28/19 A3003 RMK A01 T02810185  RH  056%=      5-min Rain = 0
KMC1 150026Z 16003KT 28/18 A3003 RMK A01 T02800184  RH  056%=      5-min Rain = 0
KMC1 150027Z 15002KT 28/19 A3003 RMK A01 T02800185  RH  056%=      5-min Rain = 0
KMC1 150028Z 18002KT 28/19 A3003 RMK A01 T02800185  RH  056%=      5-min Rain = 0
KMC1 150029Z 17004KT 28/18 A3003 RMK A01 T02800184  RH  056%=      5-min Rain = 0
KMC1 150030Z 17004KT 28/19 A3003 RMK A01 T02790185  RH  056%=      5-min Rain = 0
KMC1 150031Z 17003KT 28/18 A3003 RMK A01 T02790184  RH  056%=      5-min Rain = 0
KMC1 150032Z 17003KT 28/19 A3003 RMK A01 T02790185  RH  056%=      5-min Rain = 0
KMC1 150033Z 17003KT 28/19 A3003 RMK A01 T02790185  RH  056%=      5-min Rain = 0
KMC1 150034Z 17003KT 28/18 A3003 RMK A01 T02780184  RH  056%=      5-min Rain = 0
KMC1 150035Z 16002KT 28/18 A3003 RMK A01 T02780184  RH  057%=      5-min Rain = 0
KMC1 150036Z 16003KT 28/19 A3003 RMK A01 T02780185  RH  057%=      5-min Rain = 0
KMC1 150037Z 18003KT 28/18 A3003 RMK A01 T02780183  RH  056%=      5-min Rain = 0
KMC1 150038Z 17002KT 28/18 A3003 RMK A01 T02780183  RH  056%=      5-min Rain = 0
KMC1 150039Z 17002KT 28/18 A3003 RMK A01 T02770184  RH  057%=      5-min Rain = 0
KMC1 150040Z 18002KT 28/18 A3003 RMK A01 T02770184  RH  057%=      5-min Rain = 0
KMC1 150041Z 17002KT 28/19 A3003 RMK A01 T02770185  RH  057%=      5-min Rain = 0
KMC1 150042Z 15001KT 28/18 A3003 RMK A01 T02770184  RH  057%=      5-min Rain = 0
KMC1 150043Z 17002KT 28/19 A3003 RMK A01 T02780185  RH  057%=      5-min Rain = 0
KMC1 150044Z 16003KT 28/19 A3003 RMK A01 T02770185  RH  057%=      5-min Rain = 0
KMC1 150045Z 16002KT 28/18 A3003 RMK A01 T02770184  RH  057%=      5-min Rain = 0
KMC1 150046Z 16002KT 28/19 A3003 RMK A01 T02760185  RH  057%=      5-min Rain = 0
KMC1 150047Z 16002KT 28/19 A3003 RMK A01 T02760185  RH  057%=      5-min Rain = 0
KMC1 150048Z 16002KT 28/19 A3003 RMK A01 T02760185  RH  057%=      5-min Rain = 0
KMC1 150049Z 16001KT 28/19 A3003 RMK A01 T02760185  RH  058%=      5-min Rain = 0
KMC1 150050Z 16002KT 28/19 A3003 RMK A01 T02760186  RH  058%=      5-min Rain = 0
KMC1 150051Z 16002KT 28/19 A3003 RMK A01 T02760186  RH  058%=      5-min Rain = 0
KMC1 150052Z 17002KT 28/19 A3003 RMK A01 T02760186  RH  058%=      5-min Rain = 0
KMC1 150053Z 17002KT 28/19 A3003 RMK A01 T02750185  RH  058%=      5-min Rain = 0
KMC1 150054Z 17002KT 28/19 A3003 RMK A01 T02750186  RH  058%=      5-min Rain = 0
KMC1 150055Z 17002KT 28/19 A3003 RMK A01 T02750186  RH  058%=      5-min Rain = 0
KMC1 150056Z 18003KT 27/19 A3003 RMK A01 T02740186  RH  058%=      5-min Rain = 0
KMC1 150057Z 18003KT 27/19 A3003 RMK A01 T02740186  RH  058%=      5-min Rain = 0
KMC1 150058Z 18003KT 27/19 A3003 RMK A01 T02740185  RH  058%=      5-min Rain = 0
KMC1 150059Z 19003KT 27/19 A3003 RMK A01 T02730185  RH  059%=      5-min Rain = 0
KMC1 150100Z 18003KT 27/19 A3003 RMK A01 T02730185  RH  059%=      5-min Rain = 0
KMC1 150101Z 19003KT 27/19 A3003 RMK A01 T02730186  RH  059%=      5-min Rain = 0
KMC1 150102Z 19003KT 27/19 A3003 RMK A01 T02730185  RH  059%=      5-min Rain = 0
KMC1 150103Z 19002KT 27/19 A3003 RMK A01 T02730185  RH  059%=      5-min Rain = 0
KMC1 150104Z 20002KT 27/19 A3003 RMK A01 T02720186  RH  059%=      5-min Rain = 0
KMC1 150105Z 20002KT 27/19 A3003 RMK A01 T02720186  RH  059%=      5-min Rain = 0
KMC1 150106Z 20002KT 27/19 A3003 RMK A01 T02720186  RH  059%=      5-min Rain = 0
KMC1 150107Z 20003KT 27/19 A3003 RMK A01 T02710186  RH  060%=      5-min Rain = 0
KMC1 150108Z 20003KT 27/19 A3003 RMK A01 T02710186  RH  060%=      5-min Rain = 0
KMC1 150109Z 20003KT 27/19 A3003 RMK A01 T02700186  RH  060%=      5-min Rain = 0
KMC1 150110Z 20003KT 27/19 A3004 RMK A01 T02700185  RH  060%=      5-min Rain = 0
KMC1 150111Z 20003KT 27/19 A3004 RMK A01 T02690185  RH  060%=      5-min Rain = 0
KMC1 150112Z 20002KT 27/19 A3004 RMK A01 T02690185  RH  060%=      5-min Rain = 0
KMC1 150113Z 20003KT 27/19 A3004 RMK A01 T02690185  RH  060%=      5-min Rain = 0
KMC1 150114Z 19003KT 27/19 A3004 RMK A01 T02690185  RH  060%=      5-min Rain = 0
KMC1 150115Z 19003KT 27/19 A3004 RMK A01 T02690185  RH  060%=      5-min Rain = 0
KMC1 150116Z 19003KT 27/19 A3004 RMK A01 T02690185  RH  060%=      5-min Rain = 0
KMC1 150117Z 19003KT 27/19 A3004 RMK A01 T02680185  RH  060%=      5-min Rain = 0
KMC1 150118Z 18004KT 27/19 A3004 RMK A01 T02680186  RH  061%=      5-min Rain = 0
KMC1 150119Z 19003KT 27/19 A3004 RMK A01 T02680186  RH  061%=      5-min Rain = 0
KMC1 150120Z 19003KT 27/19 A3004 RMK A01 T02680186  RH  061%=      5-min Rain = 0
KMC1 150121Z 19003KT 27/19 A3004 RMK A01 T02670186  RH  061%=      5-min Rain = 0
KMC1 150122Z 19004KT 27/19 A3004 RMK A01 T02670186  RH  061%=      5-min Rain = 0
KMC1 150123Z 20004KT 27/19 A3004 RMK A01 T02670186  RH  061%=      5-min Rain = 0
KMC1 150124Z 19004KT 27/19 A3004 RMK A01 T02660185  RH  061%=      5-min Rain = 0
KMC1 150125Z 20005KT 27/19 A3004 RMK A01 T02660185  RH  061%=      5-min Rain = 0
KMC1 150126Z 19004KT 27/18 A3004 RMK A01 T02660184  RH  061%=      5-min Rain = 0
KMC1 150127Z 19004KT 27/19 A3004 RMK A01 T02660185  RH  061%=      5-min Rain = 0
KMC1 150128Z 19006KT 27/18 A3004 RMK A01 T02650184  RH  061%=      5-min Rain = 0
KMC1 150129Z 18006KT 27/18 A3004 RMK A01 T02650184  RH  061%=      5-min Rain = 0
KMC1 150130Z 19006KT 27/18 A3004 RMK A01 T02650184  RH  061%=      5-min Rain = 0
KMC1 150131Z 19006KT 27/18 A3004 RMK A01 T02650183  RH  061%=      5-min Rain = 0
KMC1 150132Z 18005KT 27/18 A3004 RMK A01 T02650183  RH  060%=      5-min Rain = 0
KMC1 150133Z 18006KT 27/18 A3004 RMK A01 T02650183  RH  060%=      5-min Rain = 0
KMC1 150134Z 19006KT 27/18 A3004 RMK A01 T02650182  RH  060%=      5-min Rain = 0
KMC1 150135Z 19004KT 27/18 A3004 RMK A01 T02650182  RH  060%=      5-min Rain = 0
KMC1 150136Z 19004KT 27/18 A3004 RMK A01 T02650182  RH  060%=      5-min Rain = 0
KMC1 150137Z 19004KT 27/18 A3004 RMK A01 T02650182  RH  060%=      5-min Rain = 0
KMC1 150138Z 20004KT 27/18 A3004 RMK A01 T02650182  RH  060%=      5-min Rain = 0
KMC1 150139Z 20004KT 27/18 A3004 RMK A01 T02650181  RH  060%=      5-min Rain = 0
KMC1 150140Z 20003KT 27/18 A3004 RMK A01 T02660181  RH  060%=      5-min Rain = 0
KMC1 150141Z 20006KT 27/18 A3004 RMK A01 T02650181  RH  060%=      5-min Rain = 0
KMC1 150142Z 20005KT 27/18 A3004 RMK A01 T02650180  RH  060%=      5-min Rain = 0
KMC1 150143Z 20005KT 27/18 A3004 RMK A01 T02650179  RH  059%=      5-min Rain = 0
KMC1 150144Z 20006KT 27/18 A3004 RMK A01 T02650179  RH  059%=      5-min Rain = 0
KMC1 150145Z 20005KT 27/18 A3004 RMK A01 T02650179  RH  059%=      5-min Rain = 0
KMC1 150146Z 20005KT 27/18 A3004 RMK A01 T02650179  RH  059%=      5-min Rain = 0
KMC1 150147Z 21006KT 27/18 A3004 RMK A01 T02650179  RH  059%=      5-min Rain = 0
KMC1 150148Z 22006KT 26/18 A3004 RMK A01 T02640178  RH  059%=      5-min Rain = 0
KMC1 150149Z 21006KT 26/18 A3004 RMK A01 T02640178  RH  059%=      5-min Rain = 0
KMC1 150150Z 21005KT 26/18 A3004 RMK A01 T02640178  RH  059%=      5-min Rain = 0
KMC1 150151Z 20004KT 26/18 A3004 RMK A01 T02640178  RH  059%=      5-min Rain = 0
KMC1 150152Z 20003KT 26/18 A3005 RMK A01 T02640178  RH  059%=      5-min Rain = 0
KMC1 150153Z 21004KT 26/18 A3005 RMK A01 T02630178  RH  059%=      5-min Rain = 0
KMC1 150154Z 21004KT 26/18 A3005 RMK A01 T02630178  RH  060%=      5-min Rain = 0
KMC1 150155Z 22004KT 26/18 A3005 RMK A01 T02620179  RH  060%=      5-min Rain = 0
KMC1 150156Z 22005KT 26/18 A3005 RMK A01 T02620180  RH  061%=      5-min Rain = 0
KMC1 150157Z 22005KT 26/18 A3005 RMK A01 T02610181  RH  061%=      5-min Rain = 0
KMC1 150158Z 21005KT 26/18 A3005 RMK A01 T02610181  RH  061%=      5-min Rain = 0
KMC1 150159Z 20004KT 26/18 A3005 RMK A01 T02610182  RH  062%=      5-min Rain = 0
KMC1 150200Z 20005KT 26/18 A3005 RMK A01 T02600182  RH  062%=      5-min Rain = 0
KMC1 150201Z 20005KT 26/18 A3005 RMK A01 T02600182  RH  062%=      5-min Rain = 0
KMC1 150202Z 20004KT 26/18 A3005 RMK A01 T02600182  RH  062%=      5-min Rain = 0
KMC1 150203Z 20004KT 26/18 A3005 RMK A01 T02590182  RH  062%=      5-min Rain = 0
KMC1 150204Z 20004KT 26/18 A3005 RMK A01 T02590182  RH  063%=      5-min Rain = 0
KMC1 150205Z 21004KT 26/18 A3005 RMK A01 T02590183  RH  063%=      5-min Rain = 0
KMC1 150206Z 19003KT 26/18 A3005 RMK A01 T02580183  RH  063%=      5-min Rain = 0
KMC1 150207Z 20004KT 26/18 A3005 RMK A01 T02580183  RH  063%=      5-min Rain = 0
KMC1 150208Z 21005KT 26/18 A3005 RMK A01 T02580184  RH  064%=      5-min Rain = 0
KMC1 150209Z 20004KT 26/19 A3005 RMK A01 T02580185  RH  064%=      5-min Rain = 0
KMC1 150210Z 21004KT 26/19 A3005 RMK A01 T02570185  RH  064%=      5-min Rain = 0
KMC1 150211Z 20004KT 26/19 A3005 RMK A01 T02570185  RH  064%=      5-min Rain = 0
KMC1 150212Z 21005KT 26/19 A3005 RMK A01 T02570185  RH  065%=      5-min Rain = 0
KMC1 150213Z 20005KT 26/19 A3005 RMK A01 T02570186  RH  065%=      5-min Rain = 0
KMC1 150214Z 22003KT 26/19 A3006 RMK A01 T02570187  RH  065%=      5-min Rain = 0
KMC1 150215Z 21003KT 26/19 A3006 RMK A01 T02570187  RH  065%=      5-min Rain = 0
KMC1 150216Z 21004KT 26/19 A3006 RMK A01 T02560188  RH  066%=      5-min Rain = 0
KMC1 150217Z 22003KT 26/19 A3006 RMK A01 T02560188  RH  066%=      5-min Rain = 0
KMC1 150218Z 21004KT 26/19 A3006 RMK A01 T02560188  RH  066%=      5-min Rain = 0
KMC1 150219Z 21004KT 26/19 A3006 RMK A01 T02560188  RH  066%=      5-min Rain = 0
KMC1 150220Z 21005KT 26/19 A3006 RMK A01 T02550189  RH  067%=      5-min Rain = 0
KMC1 150221Z 22004KT 26/19 A3006 RMK A01 T02550189  RH  067%=      5-min Rain = 0
KMC1 150222Z 21004KT 26/19 A3006 RMK A01 T02550189  RH  067%=      5-min Rain = 0
KMC1 150223Z 20003KT 26/19 A3006 RMK A01 T02550189  RH  067%=      5-min Rain = 0
KMC1 150224Z 20002KT 26/19 A3006 RMK A01 T02550189  RH  067%=      5-min Rain = 0
KMC1 150225Z 20004KT 26/19 A3006 RMK A01 T02550189  RH  067%=      5-min Rain = 0
KMC1 150226Z 20003KT 25/19 A3006 RMK A01 T02540189  RH  067%=      5-min Rain = 0
KMC1 150227Z 19003KT 25/19 A3006 RMK A01 T02540189  RH  067%=      5-min Rain = 0
KMC1 150228Z 19003KT 25/19 A3006 RMK A01 T02540189  RH  067%=      5-min Rain = 0
KMC1 150229Z 19004KT 25/19 A3006 RMK A01 T02530188  RH  067%=      5-min Rain = 0
KMC1 150230Z 19003KT 25/19 A3006 RMK A01 T02530188  RH  067%=      5-min Rain = 0
KMC1 150231Z 18004KT 25/19 A3006 RMK A01 T02530188  RH  067%=      5-min Rain = 0
KMC1 150232Z 18003KT 25/19 A3006 RMK A01 T02520188  RH  067%=      5-min Rain = 0
KMC1 150233Z 19003KT 25/19 A3006 RMK A01 T02520188  RH  067%=      5-min Rain = 0
KMC1 150234Z 19003KT 25/19 A3006 RMK A01 T02520188  RH  068%=      5-min Rain = 0
KMC1 150235Z 19003KT 25/19 A3006 RMK A01 T02520188  RH  068%=      5-min Rain = 0
KMC1 150236Z 20003KT 25/19 A3006 RMK A01 T02510188  RH  068%=      5-min Rain = 0
KMC1 150237Z 21003KT 25/19 A3006 RMK A01 T02510188  RH  068%=      5-min Rain = 0
KMC1 150238Z 21003KT 25/19 A3006 RMK A01 T02510188  RH  068%=      5-min Rain = 0
KMC1 150239Z 21003KT 25/19 A3006 RMK A01 T02510188  RH  068%=      5-min Rain = 0
KMC1 150240Z 21003KT 25/19 A3006 RMK A01 T02510188  RH  068%=      5-min Rain = 0
KMC1 150241Z 22002KT 25/19 A3006 RMK A01 T02500188  RH  068%=      5-min Rain = 0
KMC1 150242Z 22002KT 25/19 A3006 RMK A01 T02500188  RH  068%=      5-min Rain = 0
KMC1 150243Z 23003KT 25/19 A3006 RMK A01 T02500188  RH  069%=      5-min Rain = 0
KMC1 150244Z 23003KT 25/19 A3006 RMK A01 T02490188  RH  069%=      5-min Rain = 0
KMC1 150245Z 22003KT 25/19 A3006 RMK A01 T02480188  RH  069%=      5-min Rain = 0
KMC1 150246Z 22003KT 25/19 A3006 RMK A01 T02480188  RH  069%=      5-min Rain = 0
KMC1 150247Z 22004KT 25/19 A3006 RMK A01 T02480188  RH  069%=      5-min Rain = 0
KMC1 150248Z 21004KT 25/19 A3006 RMK A01 T02480189  RH  069%=      5-min Rain = 0
KMC1 150249Z 21003KT 25/19 A3007 RMK A01 T02480188  RH  069%=      5-min Rain = 0
KMC1 150250Z 21003KT 25/19 A3007 RMK A01 T02480188  RH  070%=      5-min Rain = 0
KMC1 150251Z 21003KT 25/19 A3007 RMK A01 T02470188  RH  070%=      5-min Rain = 0
KMC1 150252Z 21002KT 25/19 A3007 RMK A01 T02480189  RH  070%=      5-min Rain = 0
KMC1 150253Z 23002KT 25/19 A3007 RMK A01 T02470188  RH  070%=      5-min Rain = 0
KMC1 150254Z 23002KT 25/19 A3007 RMK A01 T02470188  RH  070%=      5-min Rain = 0
KMC1 150255Z 24002KT 25/19 A3007 RMK A01 T02470189  RH  070%=      5-min Rain = 0
KMC1 150256Z 23002KT 25/19 A3007 RMK A01 T02470189  RH  070%=      5-min Rain = 0
KMC1 150257Z 24003KT 25/19 A3007 RMK A01 T02470189  RH  070%=      5-min Rain = 0
KMC1 150258Z 23003KT 25/19 A3007 RMK A01 T02470190  RH  071%=      5-min Rain = 0
KMC1 150259Z 23003KT 25/19 A3008 RMK A01 T02470190  RH  071%=      5-min Rain = 0
KMC1 150300Z 23003KT 25/19 A3008 RMK A01 T02460190  RH  071%=      5-min Rain = 0
KMC1 150301Z 25002KT 25/19 A3008 RMK A01 T02460190  RH  071%=      5-min Rain = 0
KMC1 150302Z 25003KT 25/19 A3008 RMK A01 T02460190  RH  071%=      5-min Rain = 0
KMC1 150303Z 26002KT 25/19 A3008 RMK A01 T02460190  RH  071%=      5-min Rain = 0
KMC1 150304Z 27002KT 25/19 A3008 RMK A01 T02460190  RH  071%=      5-min Rain = 0
KMC1 150305Z 27002KT 25/19 A3008 RMK A01 T02460190  RH  071%=      5-min Rain = 0
KMC1 150306Z 26003KT 25/19 A3008 RMK A01 T02450191  RH  072%=      5-min Rain = 0
KMC1 150307Z 26002KT 25/19 A3008 RMK A01 T02450192  RH  072%=      5-min Rain = 0
KMC1 150308Z 26002KT 24/19 A3008 RMK A01 T02440192  RH  073%=      5-min Rain = 0
KMC1 150309Z 26002KT 24/19 A3008 RMK A01 T02430192  RH  073%=      5-min Rain = 0
KMC1 150310Z 26002KT 24/19 A3008 RMK A01 T02430191  RH  073%=      5-min Rain = 0
KMC1 150311Z 27002KT 24/19 A3008 RMK A01 T02420192  RH  073%=      5-min Rain = 0
KMC1 150312Z 27003KT 24/19 A3008 RMK A01 T02420192  RH  074%=      5-min Rain = 0
KMC1 150313Z 26003KT 24/19 A3008 RMK A01 T02410192  RH  074%=      5-min Rain = 0
KMC1 150314Z 26003KT 24/19 A3008 RMK A01 T02410192  RH  074%=      5-min Rain = 0
KMC1 150315Z 26003KT 24/19 A3008 RMK A01 T02410192  RH  074%=      5-min Rain = 0
KMC1 150316Z 27003KT 24/19 A3008 RMK A01 T02400192  RH  074%=      5-min Rain = 0
KMC1 150317Z 27003KT 24/19 A3008 RMK A01 T02400192  RH  075%=      5-min Rain = 0
KMC1 150318Z 26002KT 24/19 A3008 RMK A01 T02400192  RH  075%=      5-min Rain = 0
KMC1 150319Z 26002KT 24/19 A3008 RMK A01 T02390192  RH  075%=      5-min Rain = 0
KMC1 150320Z 26002KT 24/19 A3008 RMK A01 T02390192  RH  075%=      5-min Rain = 0
KMC1 150321Z 27002KT 24/19 A3008 RMK A01 T02390192  RH  075%=      5-min Rain = 0
KMC1 150322Z 27002KT 24/19 A3008 RMK A01 T02390192  RH  075%=      5-min Rain = 0
KMC1 150323Z 27002KT 24/19 A3009 RMK A01 T02380192  RH  075%=      5-min Rain = 0
KMC1 150324Z 27002KT 24/19 A3009 RMK A01 T02380192  RH  076%=      5-min Rain = 0
KMC1 150325Z 28002KT 24/19 A3009 RMK A01 T02380192  RH  076%=      5-min Rain = 0
KMC1 150326Z 28002KT 24/19 A3009 RMK A01 T02380193  RH  076%=      5-min Rain = 0
KMC1 150327Z 27002KT 24/19 A3009 RMK A01 T02380193  RH  076%=      5-min Rain = 0
KMC1 150328Z 27002KT 24/19 A3009 RMK A01 T02380193  RH  075%=      5-min Rain = 0
KMC1 150329Z 27002KT 24/19 A3009 RMK A01 T02390193  RH  076%=      5-min Rain = 0
KMC1 150330Z 28002KT 24/19 A3009 RMK A01 T02380193  RH  076%=      5-min Rain = 0
KMC1 150331Z 27002KT 24/19 A3009 RMK A01 T02380193  RH  075%=      5-min Rain = 0
KMC1 150332Z 27003KT 24/19 A3009 RMK A01 T02380192  RH  075%=      5-min Rain = 0
KMC1 150333Z 28003KT 24/19 A3009 RMK A01 T02380192  RH  076%=      5-min Rain = 0
KMC1 150334Z 28003KT 24/19 A3009 RMK A01 T02370191  RH  076%=      5-min Rain = 0
KMC1 150335Z 29002KT 24/19 A3009 RMK A01 T02370191  RH  076%=      5-min Rain = 0
KMC1 150336Z 29002KT 24/19 A3009 RMK A01 T02360191  RH  076%=      5-min Rain = 0
KMC1 150337Z 29002KT 24/19 A3009 RMK A01 T02360192  RH  076%=      5-min Rain = 0
KMC1 150338Z 29001KT 24/19 A3009 RMK A01 T02360193  RH  077%=      5-min Rain = 0
KMC1 150339Z 29001KT 24/19 A3009 RMK A01 T02360192  RH  077%=      5-min Rain = 0
KMC1 150340Z 29001KT 24/19 A3009 RMK A01 T02360192  RH  076%=      5-min Rain = 0
KMC1 150341Z 28001KT 24/19 A3009 RMK A01 T02350192  RH  077%=      5-min Rain = 0
KMC1 150342Z 29001KT 24/19 A3009 RMK A01 T02350192  RH  076%=      5-min Rain = 0
KMC1 150343Z 29001KT 24/19 A3009 RMK A01 T02350191  RH  076%=      5-min Rain = 0
KMC1 150344Z 29001KT 24/19 A3009 RMK A01 T02350191  RH  077%=      5-min Rain = 0
KMC1 150345Z 29001KT 23/19 A3009 RMK A01 T02340192  RH  077%=      5-min Rain = 0
KMC1 150346Z 30000KT 23/19 A3009 RMK A01 T02340192  RH  077%=      5-min Rain = 0
KMC1 150347Z 00000KT 24/19 A3009 RMK A01 T02350192  RH  077%=      5-min Rain = 0
KMC1 150348Z 34000KT 24/19 A3009 RMK A01 T02350190  RH  076%=      5-min Rain = 0
KMC1 150349Z 34001KT 24/19 A3009 RMK A01 T02350190  RH  076%=      5-min Rain = 0
KMC1 150350Z 34001KT 23/19 A3009 RMK A01 T02340189  RH  076%=      5-min Rain = 0
KMC1 150351Z 33001KT 23/19 A3009 RMK A01 T02330188  RH  076%=      5-min Rain = 0
KMC1 150352Z 33000KT 23/19 A3009 RMK A01 T02320187  RH  076%=      5-min Rain = 0
KMC1 150353Z 33001KT 23/19 A3009 RMK A01 T02320188  RH  076%=      5-min Rain = 0
KMC1 150354Z 32001KT 23/19 A3009 RMK A01 T02310188  RH  077%=      5-min Rain = 0
KMC1 150355Z 32001KT 23/19 A3009 RMK A01 T02310189  RH  077%=      5-min Rain = 0
KMC1 150356Z 34001KT 23/19 A3009 RMK A01 T02300189  RH  077%=      5-min Rain = 0
KMC1 150357Z 35001KT 23/19 A301 RMK A01 T02300190  RH  078%=      5-min Rain = 0
KMC1 150358Z 35001KT 23/19 A301 RMK A01 T02310190  RH  078%=      5-min Rain = 0
KMC1 150359Z 35001KT 23/19 A301 RMK A01 T02310190  RH  077%=      5-min Rain = 0
KMC1 150400Z 35001KT 23/19 A301 RMK A01 T02310190  RH  078%=      5-min Rain = 0
KMC1 150401Z 33000KT 23/19 A301 RMK A01 T02310189  RH  077%=      5-min Rain = 0
KMC1 150402Z 02000KT 23/19 A301 RMK A01 T02310190  RH  078%=      5-min Rain = 0
KMC1 150403Z 03001KT 23/19 A301 RMK A01 T02300190  RH  078%=      5-min Rain = 0
KMC1 150404Z 04001KT 23/19 A301 RMK A01 T02300189  RH  078%=      5-min Rain = 0
KMC1 150405Z 07002KT 23/19 A301 RMK A01 T02290189  RH  078%=      5-min Rain = 0
KMC1 150406Z 08003KT 23/19 A301 RMK A01 T02290189  RH  078%=      5-min Rain = 0
KMC1 150407Z 08003KT 23/19 A301 RMK A01 T02280187  RH  077%=      5-min Rain = 0
KMC1 150408Z 09003KT 23/19 A301 RMK A01 T02270186  RH  077%=      5-min Rain = 0
KMC1 150409Z 10003KT 23/19 A301 RMK A01 T02260186  RH  078%=      5-min Rain = 0
KMC1 150410Z 10003KT 23/19 A301 RMK A01 T02250186  RH  078%=      5-min Rain = 0
KMC1 150411Z 10003KT 23/19 A301 RMK A01 T02250186  RH  079%=      5-min Rain = 0
KMC1 150412Z 10003KT 23/19 A301 RMK A01 T02250186  RH  079%=      5-min Rain = 0
KMC1 150413Z 11003KT 23/19 A301 RMK A01 T02250186  RH  079%=      5-min Rain = 0
KMC1 150414Z 11003KT 23/19 A301 RMK A01 T02250187  RH  079%=      5-min Rain = 0
KMC1 150415Z 11003KT 23/19 A301 RMK A01 T02250187  RH  079%=      5-min Rain = 0
KMC1 150416Z 11003KT 23/19 A301 RMK A01 T02250187  RH  079%=      5-min Rain = 0
KMC1 150417Z 12003KT 23/19 A301 RMK A01 T02250187  RH  079%=      5-min Rain = 0
KMC1 150418Z 12003KT 23/19 A301 RMK A01 T02260188  RH  079%=      5-min Rain = 0
KMC1 150419Z 12003KT 23/19 A301 RMK A01 T02260188  RH  079%=      5-min Rain = 0
KMC1 150420Z 12003KT 23/19 A301 RMK A01 T02260188  RH  079%=      5-min Rain = 0
KMC1 150421Z 13003KT 23/19 A301 RMK A01 T02270188  RH  079%=      5-min Rain = 0
KMC1 150422Z 12002KT 23/19 A301 RMK A01 T02270188  RH  079%=      5-min Rain = 0
KMC1 150423Z 12002KT 23/19 A301 RMK A01 T02270189  RH  079%=      5-min Rain = 0
KMC1 150424Z 11001KT 23/19 A301 RMK A01 T02270190  RH  079%=      5-min Rain = 0
KMC1 150425Z 09001KT 23/19 A301 RMK A01 T02280190  RH  079%=      5-min Rain = 0
KMC1 150426Z 07001KT 23/19 A301 RMK A01 T02280190  RH  079%=      5-min Rain = 0
KMC1 150427Z 07001KT 23/19 A301 RMK A01 T02280189  RH  079%=      5-min Rain = 0
KMC1 150428Z 07001KT 23/19 A301 RMK A01 T02280189  RH  078%=      5-min Rain = 0
KMC1 150429Z 09001KT 23/19 A301 RMK A01 T02280191  RH  079%=      5-min Rain = 0
KMC1 150430Z 09002KT 23/19 A301 RMK A01 T02290192  RH  080%=      5-min Rain = 0
KMC1 150431Z 08003KT 23/19 A301 RMK A01 T02300191  RH  079%=      5-min Rain = 0
KMC1 150432Z 08004KT 23/19 A301 RMK A01 T02310191  RH  078%=      5-min Rain = 0
KMC1 150433Z 07004KT 23/19 A301 RMK A01 T02310190  RH  078%=      5-min Rain = 0
KMC1 150434Z 07004KT 23/19 A301 RMK A01 T02300189  RH  078%=      5-min Rain = 0
KMC1 150435Z 07003KT 23/19 A301 RMK A01 T02290189  RH  078%=      5-min Rain = 0
KMC1 150436Z 07003KT 23/19 A301 RMK A01 T02280188  RH  078%=      5-min Rain = 0
KMC1 150437Z 08003KT 23/19 A301 RMK A01 T02280188  RH  078%=      5-min Rain = 0
KMC1 150438Z 09002KT 23/19 A301 RMK A01 T02270188  RH  078%=      5-min Rain = 0
KMC1 150439Z 09003KT 23/19 A301 RMK A01 T02270188  RH  079%=      5-min Rain = 0
KMC1 150440Z 09003KT 23/19 A301 RMK A01 T02260188  RH  079%=      5-min Rain = 0
KMC1 150441Z 09003KT 23/19 A301 RMK A01 T02260188  RH  079%=      5-min Rain = 0
KMC1 150442Z 09004KT 23/19 A301 RMK A01 T02260188  RH  079%=      5-min Rain = 0
KMC1 150443Z 08004KT 23/19 A301 RMK A01 T02260188  RH  079%=      5-min Rain = 0
KMC1 150444Z 08003KT 23/19 A301 RMK A01 T02260188  RH  079%=      5-min Rain = 0
KMC1 150445Z 09003KT 23/19 A301 RMK A01 T02260187  RH  079%=      5-min Rain = 0
KMC1 150446Z 09003KT 23/19 A301 RMK A01 T02260187  RH  079%=      5-min Rain = 0
KMC1 150447Z 09003KT 23/19 A301 RMK A01 T02260187  RH  079%=      5-min Rain = 0
KMC1 150448Z 08003KT 23/19 A3011 RMK A01 T02260188  RH  079%=      5-min Rain = 0
KMC1 150449Z 07003KT 23/19 A3011 RMK A01 T02260187  RH  079%=      5-min Rain = 0
KMC1 150450Z 07003KT 23/19 A3011 RMK A01 T02260187  RH  079%=      5-min Rain = 0
KMC1 150451Z 06003KT 23/19 A3011 RMK A01 T02260187  RH  079%=      5-min Rain = 0
KMC1 150452Z 06003KT 23/19 A3011 RMK A01 T02250187  RH  079%=      5-min Rain = 0
KMC1 150453Z 05003KT 23/19 A3011 RMK A01 T02250187  RH  079%=      5-min Rain = 0
KMC1 150454Z 05003KT 23/19 A3011 RMK A01 T02250187  RH  079%=      5-min Rain = 0
KMC1 150455Z 05003KT 22/19 A3011 RMK A01 T02240186  RH  079%=      5-min Rain = 0
KMC1 150456Z 05003KT 22/19 A3011 RMK A01 T02240187  RH  079%=      5-min Rain = 0
KMC1 150457Z 05004KT 22/19 A3011 RMK A01 T02240187  RH  079%=      5-min Rain = 0
KMC1 150458Z 05004KT 22/19 A3011 RMK A01 T02240186  RH  079%=      5-min Rain = 0
KMC1 150459Z 05004KT 22/19 A3011 RMK A01 T02240186  RH  079%=      5-min Rain = 0

Page generated in 0.13 seconds.